Observation data for Mertzon on 08/04/2020      Previous  Date       Current Mesonet Observations  Soil Data  Daily Summary Page  Observations in Plain Language
KME1 040500Z 09002KT 22/16 A3009 RMK A01 T02210163  RH  070%=      5-min Rain = 0
KME1 040501Z 10003KT 22/16 A3009 RMK A01 T02180163  RH  071%=      5-min Rain = 0
KME1 040502Z 12002KT 22/16 A3009 RMK A01 T02160163  RH  072%=      5-min Rain = 0
KME1 040503Z 12003KT 21/16 A3009 RMK A01 T02140162  RH  072%=      5-min Rain = 0
KME1 040504Z 12003KT 21/16 A3009 RMK A01 T02140162  RH  073%=      5-min Rain = 0
KME1 040505Z 13002KT 21/16 A3009 RMK A01 T02130162  RH  073%=      5-min Rain = 0
KME1 040506Z 13002KT 21/16 A3009 RMK A01 T02130162  RH  073%=      5-min Rain = 0
KME1 040507Z 13003KT 21/16 A3009 RMK A01 T02130163  RH  073%=      5-min Rain = 0
KME1 040508Z 13003KT 21/16 A3009 RMK A01 T02130163  RH  073%=      5-min Rain = 0
KME1 040509Z 12002KT 21/16 A3009 RMK A01 T02130163  RH  073%=      5-min Rain = 0
KME1 040510Z 12002KT 21/16 A3009 RMK A01 T02130163  RH  073%=      5-min Rain = 0
KME1 040511Z 12002KT 21/16 A3009 RMK A01 T02120163  RH  073%=      5-min Rain = 0
KME1 040512Z 13002KT 21/16 A3009 RMK A01 T02120163  RH  074%=      5-min Rain = 0
KME1 040513Z 13002KT 21/16 A3009 RMK A01 T02120163  RH  074%=      5-min Rain = 0
KME1 040514Z 14001KT 21/16 A3009 RMK A01 T02120163  RH  074%=      5-min Rain = 0
KME1 040515Z 16001KT 21/16 A3009 RMK A01 T02120163  RH  074%=      5-min Rain = 0
KME1 040516Z 16001KT 21/16 A3009 RMK A01 T02110162  RH  073%=      5-min Rain = 0
KME1 040517Z 16001KT 21/16 A3009 RMK A01 T02120163  RH  074%=      5-min Rain = 0
KME1 040518Z 17002KT 21/16 A3009 RMK A01 T02110163  RH  074%=      5-min Rain = 0
KME1 040519Z 17002KT 21/16 A3009 RMK A01 T02120162  RH  073%=      5-min Rain = 0
KME1 040520Z 16001KT 21/16 A3009 RMK A01 T02120163  RH  073%=      5-min Rain = 0
KME1 040521Z 15001KT 21/16 A3009 RMK A01 T02120163  RH  074%=      5-min Rain = 0
KME1 040522Z 16001KT 21/16 A3009 RMK A01 T02120164  RH  074%=      5-min Rain = 0
KME1 040523Z 18001KT 21/16 A3009 RMK A01 T02110164  RH  074%=      5-min Rain = 0
KME1 040524Z 18000KT 21/17 A3009 RMK A01 T02110165  RH  075%=      5-min Rain = 0
KME1 040525Z 00000KT 21/16 A3009 RMK A01 T02100164  RH  075%=      5-min Rain = 0
KME1 040526Z 00000KT 21/16 A3009 RMK A01 T02070163  RH  076%=      5-min Rain = 0
KME1 040527Z 00000KT 21/16 A3009 RMK A01 T02050163  RH  077%=      5-min Rain = 0
KME1 040528Z 00000KT 20/16 A3009 RMK A01 T02030163  RH  078%=      5-min Rain = 0
KME1 040529Z 35000KT 20/16 A3009 RMK A01 T02020163  RH  078%=      5-min Rain = 0
KME1 040530Z 35001KT 20/16 A3009 RMK A01 T02020163  RH  078%=      5-min Rain = 0
KME1 040531Z 00001KT 20/16 A3009 RMK A01 T02010162  RH  078%=      5-min Rain = 0
KME1 040532Z 01001KT 20/16 A3009 RMK A01 T02010163  RH  078%=      5-min Rain = 0
KME1 040533Z 01001KT 20/16 A3009 RMK A01 T02010163  RH  079%=      5-min Rain = 0
KME1 040534Z 01002KT 20/16 A3009 RMK A01 T02010163  RH  079%=      5-min Rain = 0
KME1 040535Z 01002KT 20/16 A3009 RMK A01 T02010162  RH  078%=      5-min Rain = 0
KME1 040536Z 02002KT 20/16 A3009 RMK A01 T02010163  RH  079%=      5-min Rain = 0
KME1 040537Z 03002KT 20/16 A3009 RMK A01 T02010163  RH  079%=      5-min Rain = 0
KME1 040538Z 02002KT 20/16 A3009 RMK A01 T02010163  RH  079%=      5-min Rain = 0
KME1 040539Z 02002KT 20/16 A3008 RMK A01 T02010163  RH  079%=      5-min Rain = 0
KME1 040540Z 03002KT 20/16 A3008 RMK A01 T02010163  RH  079%=      5-min Rain = 0
KME1 040541Z 03001KT 20/16 A3008 RMK A01 T02010164  RH  079%=      5-min Rain = 0
KME1 040542Z 03001KT 20/16 A3008 RMK A01 T02000164  RH  079%=      5-min Rain = 0
KME1 040543Z 04000KT 20/16 A3008 RMK A01 T02000163  RH  079%=      5-min Rain = 0
KME1 040544Z 00000KT 20/16 A3008 RMK A01 T02000163  RH  079%=      5-min Rain = 0
KME1 040545Z 00000KT 20/16 A3008 RMK A01 T02000163  RH  079%=      5-min Rain = 0
KME1 040546Z 00000KT 20/16 A3008 RMK A01 T02000162  RH  079%=      5-min Rain = 0
KME1 040547Z 00000KT 20/16 A3008 RMK A01 T02000163  RH  079%=      5-min Rain = 0
KME1 040548Z 00000KT 20/16 A3008 RMK A01 T01990162  RH  079%=      5-min Rain = 0
KME1 040549Z 00000KT 20/16 A3008 RMK A01 T01990163  RH  079%=      5-min Rain = 0
KME1 040550Z 00000KT 20/16 A3008 RMK A01 T01990163  RH  079%=      5-min Rain = 0
KME1 040551Z 00000KT 20/16 A3008 RMK A01 T01990162  RH  079%=      5-min Rain = 0
KME1 040552Z 00000KT 20/16 A3008 RMK A01 T01990162  RH  079%=      5-min Rain = 0
KME1 040553Z 00000KT 20/16 A3008 RMK A01 T01990163  RH  080%=      5-min Rain = 0
KME1 040554Z 00000KT 20/16 A3008 RMK A01 T01980162  RH  080%=      5-min Rain = 0
KME1 040555Z 00000KT 20/16 A3008 RMK A01 T01980162  RH  079%=      5-min Rain = 0
KME1 040556Z 00000KT 20/16 A3008 RMK A01 T01980162  RH  079%=      5-min Rain = 0
KME1 040557Z 33001KT 20/16 A3008 RMK A01 T01990162  RH  079%=      5-min Rain = 0
KME1 040558Z 34001KT 20/16 A3008 RMK A01 T02000162  RH  079%=      5-min Rain = 0
KME1 040559Z 35001KT 20/16 A3008 RMK A01 T02000162  RH  079%=      5-min Rain = 0
KME1 040600Z 36001KT 20/16 A3008 RMK A01 T02000162  RH  079%=      5-min Rain = 0
KME1 040601Z 00001KT 20/16 A3008 RMK A01 T02000162  RH  079%=      5-min Rain = 0
KME1 040602Z 00002KT 20/16 A3008 RMK A01 T02000162  RH  079%=      5-min Rain = 0
KME1 040603Z 00002KT 20/16 A3008 RMK A01 T02000162  RH  079%=      5-min Rain = 0
KME1 040604Z 36002KT 20/16 A3008 RMK A01 T01990162  RH  079%=      5-min Rain = 0
KME1 040605Z 35002KT 20/16 A3008 RMK A01 T01990162  RH  079%=      5-min Rain = 0
KME1 040606Z 35002KT 20/16 A3008 RMK A01 T01980162  RH  080%=      5-min Rain = 0
KME1 040607Z 35003KT 20/16 A3008 RMK A01 T01970163  RH  080%=      5-min Rain = 0
KME1 040608Z 35003KT 20/16 A3008 RMK A01 T01970163  RH  081%=      5-min Rain = 0
KME1 040609Z 35003KT 20/16 A3008 RMK A01 T01970163  RH  081%=      5-min Rain = 0
KME1 040610Z 35003KT 20/16 A3008 RMK A01 T01970163  RH  081%=      5-min Rain = 0
KME1 040611Z 35003KT 20/16 A3008 RMK A01 T01980163  RH  080%=      5-min Rain = 0
KME1 040612Z 34003KT 20/16 A3008 RMK A01 T01990163  RH  080%=      5-min Rain = 0
KME1 040613Z 34003KT 20/16 A3008 RMK A01 T02010163  RH  079%=      5-min Rain = 0
KME1 040614Z 33002KT 20/16 A3008 RMK A01 T02020163  RH  078%=      5-min Rain = 0
KME1 040615Z 33002KT 20/16 A3008 RMK A01 T02030163  RH  078%=      5-min Rain = 0
KME1 040616Z 33002KT 20/16 A3008 RMK A01 T02030163  RH  078%=      5-min Rain = 0
KME1 040617Z 34002KT 20/16 A3008 RMK A01 T02030163  RH  077%=      5-min Rain = 0
KME1 040618Z 34002KT 20/16 A3008 RMK A01 T02030163  RH  077%=      5-min Rain = 0
KME1 040619Z 36001KT 20/16 A3008 RMK A01 T02030162  RH  078%=      5-min Rain = 0
KME1 040620Z 01001KT 20/16 A3008 RMK A01 T02030163  RH  078%=      5-min Rain = 0
KME1 040621Z 36001KT 20/16 A3008 RMK A01 T02020162  RH  078%=      5-min Rain = 0
KME1 040622Z 34001KT 20/16 A3008 RMK A01 T02000161  RH  078%=      5-min Rain = 0
KME1 040623Z 34001KT 20/16 A3008 RMK A01 T01990161  RH  079%=      5-min Rain = 0
KME1 040624Z 33001KT 20/16 A3008 RMK A01 T01980161  RH  079%=      5-min Rain = 0
KME1 040625Z 32001KT 20/16 A3008 RMK A01 T01970162  RH  080%=      5-min Rain = 0
KME1 040626Z 33001KT 20/16 A3008 RMK A01 T01960162  RH  081%=      5-min Rain = 0
KME1 040627Z 33001KT 20/16 A3008 RMK A01 T01950163  RH  082%=      5-min Rain = 0
KME1 040628Z 34001KT 20/16 A3008 RMK A01 T01950163  RH  082%=      5-min Rain = 0
KME1 040629Z 34001KT 20/16 A3008 RMK A01 T01950163  RH  082%=      5-min Rain = 0
KME1 040630Z 34001KT 19/16 A3008 RMK A01 T01940163  RH  082%=      5-min Rain = 0
KME1 040631Z 34000KT 19/16 A3008 RMK A01 T01940162  RH  082%=      5-min Rain = 0
KME1 040632Z 34000KT 19/16 A3008 RMK A01 T01930162  RH  082%=      5-min Rain = 0
KME1 040633Z 00000KT 19/16 A3008 RMK A01 T01920162  RH  082%=      5-min Rain = 0
KME1 040634Z 00000KT 19/16 A3008 RMK A01 T01920161  RH  082%=      5-min Rain = 0
KME1 040635Z 00000KT 19/16 A3008 RMK A01 T01910161  RH  083%=      5-min Rain = 0
KME1 040636Z 00000KT 19/16 A3008 RMK A01 T01900160  RH  083%=      5-min Rain = 0
KME1 040637Z 00000KT 19/16 A3008 RMK A01 T01880160  RH  084%=      5-min Rain = 0
KME1 040638Z 00000KT 19/16 A3008 RMK A01 T01880162  RH  085%=      5-min Rain = 0
KME1 040639Z 00000KT 19/16 A3008 RMK A01 T01870162  RH  085%=      5-min Rain = 0
KME1 040640Z 00000KT 19/16 A3008 RMK A01 T01870161  RH  085%=      5-min Rain = 0
KME1 040641Z 00000KT 19/16 A3008 RMK A01 T01860161  RH  085%=      5-min Rain = 0
KME1 040642Z 00000KT 19/16 A3008 RMK A01 T01850162  RH  086%=      5-min Rain = 0
KME1 040643Z 00000KT 19/16 A3008 RMK A01 T01850162  RH  086%=      5-min Rain = 0
KME1 040644Z 00000KT 19/16 A3008 RMK A01 T01850162  RH  086%=      5-min Rain = 0
KME1 040645Z 00000KT 19/16 A3008 RMK A01 T01850163  RH  087%=      5-min Rain = 0
KME1 040646Z 00000KT 18/16 A3008 RMK A01 T01840164  RH  088%=      5-min Rain = 0
KME1 040647Z 34001KT 18/17 A3008 RMK A01 T01840165  RH  089%=      5-min Rain = 0
KME1 040648Z 34001KT 18/17 A3008 RMK A01 T01840166  RH  090%=      5-min Rain = 0
KME1 040649Z 00000KT 18/17 A3008 RMK A01 T01830168  RH  091%=      5-min Rain = 0
KME1 040650Z 01000KT 18/17 A3008 RMK A01 T01830169  RH  091%=      5-min Rain = 0
KME1 040651Z 00001KT 18/17 A3008 RMK A01 T01830168  RH  091%=      5-min Rain = 0
KME1 040652Z 01001KT 18/17 A3008 RMK A01 T01830169  RH  091%=      5-min Rain = 0
KME1 040653Z 04001KT 18/17 A3008 RMK A01 T01830168  RH  091%=      5-min Rain = 0
KME1 040654Z 05001KT 18/17 A3008 RMK A01 T01820168  RH  092%=      5-min Rain = 0
KME1 040655Z 04001KT 18/17 A3008 RMK A01 T01820169  RH  092%=      5-min Rain = 0
KME1 040656Z 03000KT 18/17 A3008 RMK A01 T01810170  RH  093%=      5-min Rain = 0
KME1 040657Z 00000KT 18/17 A3008 RMK A01 T01810169  RH  093%=      5-min Rain = 0
KME1 040658Z 00000KT 18/17 A3008 RMK A01 T01810170  RH  093%=      5-min Rain = 0
KME1 040659Z 00000KT 18/17 A3008 RMK A01 T01810169  RH  093%=      5-min Rain = 0
KME1 040700Z 00000KT 18/17 A3008 RMK A01 T01800169  RH  093%=      5-min Rain = 0
KME1 040701Z 11000KT 18/17 A3008 RMK A01 T01800169  RH  093%=      5-min Rain = 0
KME1 040702Z 12001KT 18/17 A3008 RMK A01 T01800169  RH  093%=      5-min Rain = 0
KME1 040703Z 13000KT 18/17 A3009 RMK A01 T01800169  RH  093%=      5-min Rain = 0
KME1 040704Z 12001KT 18/17 A3009 RMK A01 T01800169  RH  093%=      5-min Rain = 0
KME1 040705Z 13001KT 18/17 A3009 RMK A01 T01800169  RH  093%=      5-min Rain = 0
KME1 040706Z 13001KT 18/17 A3009 RMK A01 T01800169  RH  094%=      5-min Rain = 0
KME1 040707Z 13001KT 18/17 A3009 RMK A01 T01800170  RH  094%=      5-min Rain = 0
KME1 040708Z 13001KT 18/17 A3009 RMK A01 T01790170  RH  094%=      5-min Rain = 0
KME1 040709Z 13001KT 18/17 A3009 RMK A01 T01790170  RH  094%=      5-min Rain = 0
KME1 040710Z 15001KT 18/17 A3009 RMK A01 T01790170  RH  094%=      5-min Rain = 0
KME1 040711Z 13001KT 18/17 A3009 RMK A01 T01790170  RH  094%=      5-min Rain = 0
KME1 040712Z 14001KT 18/17 A3009 RMK A01 T01790170  RH  094%=      5-min Rain = 0
KME1 040713Z 14001KT 18/17 A3009 RMK A01 T01790169  RH  094%=      5-min Rain = 0
KME1 040714Z 14001KT 18/17 A3009 RMK A01 T01790169  RH  093%=      5-min Rain = 0
KME1 040715Z 14001KT 18/17 A3009 RMK A01 T01800168  RH  093%=      5-min Rain = 0
KME1 040716Z 15000KT 18/17 A3009 RMK A01 T01790168  RH  093%=      5-min Rain = 0
KME1 040717Z 17000KT 18/17 A3009 RMK A01 T01790169  RH  093%=      5-min Rain = 0
KME1 040718Z 17000KT 18/17 A3009 RMK A01 T01800170  RH  094%=      5-min Rain = 0
KME1 040719Z 00000KT 18/17 A3009 RMK A01 T01790170  RH  094%=      5-min Rain = 0
KME1 040720Z 00000KT 18/17 A3009 RMK A01 T01800170  RH  094%=      5-min Rain = 0
KME1 040721Z 25000KT 18/17 A3009 RMK A01 T01800169  RH  093%=      5-min Rain = 0
KME1 040722Z 00000KT 18/17 A3009 RMK A01 T01820170  RH  093%=      5-min Rain = 0
KME1 040723Z 00000KT 18/17 A3009 RMK A01 T01820169  RH  092%=      5-min Rain = 0
KME1 040724Z 00000KT 18/17 A3009 RMK A01 T01820170  RH  092%=      5-min Rain = 0
KME1 040725Z 31000KT 18/17 A3009 RMK A01 T01820170  RH  092%=      5-min Rain = 0
KME1 040726Z 30000KT 18/17 A3009 RMK A01 T01820171  RH  093%=      5-min Rain = 0
KME1 040727Z 00000KT 18/17 A3009 RMK A01 T01820171  RH  093%=      5-min Rain = 0
KME1 040728Z 36001KT 18/17 A3009 RMK A01 T01820171  RH  093%=      5-min Rain = 0
KME1 040729Z 36000KT 18/17 A3009 RMK A01 T01820170  RH  093%=      5-min Rain = 0
KME1 040730Z 33000KT 18/17 A3009 RMK A01 T01820170  RH  093%=      5-min Rain = 0
KME1 040731Z 34000KT 18/17 A3009 RMK A01 T01820170  RH  093%=      5-min Rain = 0
KME1 040732Z 11000KT 18/17 A3009 RMK A01 T01810170  RH  093%=      5-min Rain = 0
KME1 040733Z 00000KT 18/17 A3009 RMK A01 T01810170  RH  093%=      5-min Rain = 0
KME1 040734Z 00000KT 18/17 A3009 RMK A01 T01810170  RH  093%=      5-min Rain = 0
KME1 040735Z 21000KT 18/17 A3009 RMK A01 T01800170  RH  094%=      5-min Rain = 0
KME1 040736Z 23000KT 18/17 A3009 RMK A01 T01810171  RH  094%=      5-min Rain = 0
KME1 040737Z 00000KT 18/17 A3009 RMK A01 T01810171  RH  094%=      5-min Rain = 0
KME1 040738Z 26000KT 18/17 A3009 RMK A01 T01810171  RH  094%=      5-min Rain = 0
KME1 040739Z 23000KT 18/17 A3009 RMK A01 T01800171  RH  094%=      5-min Rain = 0
KME1 040740Z 00000KT 18/17 A3009 RMK A01 T01800170  RH  094%=      5-min Rain = 0
KME1 040741Z 26000KT 18/17 A3009 RMK A01 T01810171  RH  094%=      5-min Rain = 0
KME1 040742Z 00000KT 18/17 A3009 RMK A01 T01810172  RH  094%=      5-min Rain = 0
KME1 040743Z 00000KT 18/17 A3009 RMK A01 T01810172  RH  094%=      5-min Rain = 0
KME1 040744Z 00000KT 18/17 A3009 RMK A01 T01820172  RH  094%=      5-min Rain = 0
KME1 040745Z 00000KT 18/17 A3009 RMK A01 T01810172  RH  094%=      5-min Rain = 0
KME1 040746Z 00000KT 18/17 A3009 RMK A01 T01810172  RH  094%=      5-min Rain = 0
KME1 040747Z 00000KT 18/17 A3009 RMK A01 T01810171  RH  094%=      5-min Rain = 0
KME1 040748Z 00000KT 18/17 A3009 RMK A01 T01810171  RH  094%=      5-min Rain = 0
KME1 040749Z 00000KT 18/17 A3009 RMK A01 T01810171  RH  094%=      5-min Rain = 0
KME1 040750Z 00000KT 18/17 A3009 RMK A01 T01820171  RH  094%=      5-min Rain = 0
KME1 040751Z 00000KT 18/17 A3009 RMK A01 T01810171  RH  094%=      5-min Rain = 0
KME1 040752Z 00000KT 18/17 A3009 RMK A01 T01810171  RH  094%=      5-min Rain = 0
KME1 040753Z 00000KT 18/17 A3009 RMK A01 T01800172  RH  095%=      5-min Rain = 0
KME1 040754Z 21000KT 18/17 A3009 RMK A01 T01800172  RH  095%=      5-min Rain = 0
KME1 040755Z 21001KT 18/17 A3009 RMK A01 T01800171  RH  094%=      5-min Rain = 0
KME1 040756Z 22001KT 18/17 A3009 RMK A01 T01800171  RH  094%=      5-min Rain = 0
KME1 040757Z 21001KT 18/17 A3009 RMK A01 T01800173  RH  095%=      5-min Rain = 0
KME1 040758Z 20001KT 18/17 A3009 RMK A01 T01800173  RH  096%=      5-min Rain = 0
KME1 040759Z 20001KT 18/17 A3008 RMK A01 T01800173  RH  095%=      5-min Rain = 0
KME1 040800Z 19001KT 18/17 A3008 RMK A01 T01800172  RH  095%=      5-min Rain = 0
KME1 040801Z 19001KT 18/17 A3008 RMK A01 T01810172  RH  095%=      5-min Rain = 0
KME1 040802Z 19001KT 18/17 A3008 RMK A01 T01800172  RH  095%=      5-min Rain = 0
KME1 040803Z 20001KT 18/17 A3008 RMK A01 T01800172  RH  095%=      5-min Rain = 0
KME1 040804Z 20001KT 18/17 A3008 RMK A01 T01790171  RH  095%=      5-min Rain = 0
KME1 040805Z 20001KT 18/17 A3008 RMK A01 T01790171  RH  095%=      5-min Rain = 0
KME1 040806Z 20001KT 18/17 A3008 RMK A01 T01800171  RH  095%=      5-min Rain = 0
KME1 040807Z 21001KT 18/17 A3008 RMK A01 T01800171  RH  095%=      5-min Rain = 0
KME1 040808Z 21001KT 18/17 A3008 RMK A01 T01790171  RH  095%=      5-min Rain = 0
KME1 040809Z 21000KT 18/17 A3008 RMK A01 T01800171  RH  095%=      5-min Rain = 0
KME1 040810Z 00000KT 18/17 A3008 RMK A01 T01800172  RH  095%=      5-min Rain = 0
KME1 040811Z 00000KT 18/17 A3008 RMK A01 T01790172  RH  095%=      5-min Rain = 0
KME1 040812Z 00000KT 18/17 A3008 RMK A01 T01790173  RH  096%=      5-min Rain = 0
KME1 040813Z 00000KT 18/17 A3008 RMK A01 T01790173  RH  097%=      5-min Rain = 0
KME1 040814Z 00000KT 18/17 A3008 RMK A01 T01780174  RH  097%=      5-min Rain = 0
KME1 040815Z 00000KT 18/18 A3008 RMK A01 T01780175  RH  098%=      5-min Rain = 0
KME1 040816Z 00000KT 18/18 A3008 RMK A01 T01780175  RH  098%=      5-min Rain = 0
KME1 040817Z 00000KT 18/18 A3008 RMK A01 T01780175  RH  098%=      5-min Rain = 0
KME1 040818Z 00000KT 18/18 A3008 RMK A01 T01780176  RH  099%=      5-min Rain = 0
KME1 040819Z 00000KT 18/18 A3008 RMK A01 T01780176  RH  099%=      5-min Rain = 0
KME1 040820Z 00000KT 18/18 A3008 RMK A01 T01780176  RH  099%=      5-min Rain = 0
KME1 040821Z 00000KT 18/18 A3008 RMK A01 T01780176  RH  099%=      5-min Rain = 0
KME1 040822Z 00000KT 18/18 A3008 RMK A01 T01780176  RH  099%=      5-min Rain = 0
KME1 040823Z 00000KT 18/18 A3008 RMK A01 T01780176  RH  099%=      5-min Rain = 0
KME1 040824Z 00000KT 18/18 A3008 RMK A01 T01780175  RH  098%=      5-min Rain = 0
KME1 040825Z 02000KT 18/18 A3008 RMK A01 T01770175  RH  099%=      5-min Rain = 0
KME1 040826Z 02000KT 18/18 A3008 RMK A01 T01770176  RH  099%=      5-min Rain = 0
KME1 040827Z 00000KT 18/18 A3008 RMK A01 T01770176  RH  099%=      5-min Rain = 0
KME1 040828Z 00000KT 18/18 A3008 RMK A01 T01760175  RH  100%=      5-min Rain = 0
KME1 040829Z 00000KT 18/18 A3008 RMK A01 T01760175  RH  100%=      5-min Rain = 0
KME1 040830Z 33000KT 18/18 A3008 RMK A01 T01760176  RH  100%=      5-min Rain = 0
KME1 040831Z 30001KT 18/18 A3008 RMK A01 T01750176  RH  100%=      5-min Rain = 0
KME1 040832Z 30001KT 18/18 A3008 RMK A01 T01750175  RH  100%=      5-min Rain = 0
KME1 040833Z 30001KT 18/18 A3008 RMK A01 T01760176  RH  100%=      5-min Rain = 0
KME1 040834Z 31001KT 18/18 A3008 RMK A01 T01750175  RH  100%=      5-min Rain = 0
KME1 040835Z 31001KT 18/18 A3008 RMK A01 T01750176  RH  100%=      5-min Rain = 0
KME1 040836Z 31000KT 18/18 A3008 RMK A01 T01750176  RH  100%=      5-min Rain = 0
KME1 040837Z 00000KT 18/18 A3008 RMK A01 T01750176  RH  100%=      5-min Rain = 0
KME1 040838Z 00000KT 18/18 A3008 RMK A01 T01750176  RH  100%=      5-min Rain = 0
KME1 040839Z 00000KT 18/18 A3008 RMK A01 T01750176  RH  100%=      5-min Rain = 0
KME1 040840Z 00000KT 18/18 A3008 RMK A01 T01760176  RH  100%=      5-min Rain = 0
KME1 040841Z 33000KT 18/18 A3008 RMK A01 T01760176  RH  100%=      5-min Rain = 0
KME1 040842Z 34001KT 18/18 A3008 RMK A01 T01760177  RH  100%=      5-min Rain = 0
KME1 040843Z 32001KT 18/18 A3008 RMK A01 T01770177  RH  100%=      5-min Rain = 0
KME1 040844Z 32001KT 18/18 A3007 RMK A01 T01770178  RH  100%=      5-min Rain = 0
KME1 040845Z 32001KT 18/18 A3007 RMK A01 T01780177  RH  100%=      5-min Rain = 0
KME1 040846Z 30002KT 18/18 A3007 RMK A01 T01780177  RH  099%=      5-min Rain = 0
KME1 040847Z 29001KT 18/18 A3007 RMK A01 T01780176  RH  099%=      5-min Rain = 0
KME1 040848Z 30001KT 18/18 A3007 RMK A01 T01780176  RH  099%=      5-min Rain = 0
KME1 040849Z 30001KT 18/18 A3007 RMK A01 T01780176  RH  098%=      5-min Rain = 0
KME1 040850Z 31001KT 18/18 A3007 RMK A01 T01780176  RH  098%=      5-min Rain = 0
KME1 040851Z 31001KT 18/18 A3007 RMK A01 T01780176  RH  099%=      5-min Rain = 0
KME1 040852Z 29000KT 18/18 A3007 RMK A01 T01780176  RH  098%=      5-min Rain = 0
KME1 040853Z 00000KT 18/18 A3007 RMK A01 T01780175  RH  098%=      5-min Rain = 0
KME1 040854Z 00000KT 18/18 A3007 RMK A01 T01790176  RH  098%=      5-min Rain = 0
KME1 040855Z 31000KT 18/18 A3007 RMK A01 T01790175  RH  098%=      5-min Rain = 0
KME1 040856Z 31000KT 18/18 A3007 RMK A01 T01790175  RH  097%=      5-min Rain = 0
KME1 040857Z 00000KT 18/17 A3007 RMK A01 T01780174  RH  097%=      5-min Rain = 0
KME1 040858Z 00000KT 18/17 A3007 RMK A01 T01780174  RH  098%=      5-min Rain = 0
KME1 040859Z 34000KT 18/17 A3007 RMK A01 T01780174  RH  097%=      5-min Rain = 0
KME1 040900Z 31001KT 18/17 A3007 RMK A01 T01780173  RH  097%=      5-min Rain = 0
KME1 040901Z 32001KT 18/17 A3007 RMK A01 T01780172  RH  096%=      5-min Rain = 0
KME1 040902Z 32001KT 18/17 A3007 RMK A01 T01780172  RH  096%=      5-min Rain = 0
KME1 040903Z 33001KT 18/17 A3007 RMK A01 T01780172  RH  096%=      5-min Rain = 0
KME1 040904Z 33001KT 18/17 A3007 RMK A01 T01770172  RH  096%=      5-min Rain = 0
KME1 040905Z 32001KT 18/17 A3007 RMK A01 T01770172  RH  097%=      5-min Rain = 0
KME1 040906Z 32001KT 18/17 A3007 RMK A01 T01770172  RH  097%=      5-min Rain = 0
KME1 040907Z 32001KT 18/17 A3007 RMK A01 T01760172  RH  098%=      5-min Rain = 0
KME1 040908Z 31001KT 18/17 A3007 RMK A01 T01760173  RH  098%=      5-min Rain = 0
KME1 040909Z 31001KT 18/17 A3007 RMK A01 T01760173  RH  098%=      5-min Rain = 0
KME1 040910Z 31001KT 18/17 A3007 RMK A01 T01760173  RH  098%=      5-min Rain = 0
KME1 040911Z 30001KT 18/17 A3007 RMK A01 T01760173  RH  098%=      5-min Rain = 0
KME1 040912Z 29001KT 18/17 A3007 RMK A01 T01760173  RH  098%=      5-min Rain = 0
KME1 040913Z 29001KT 18/17 A3007 RMK A01 T01760173  RH  098%=      5-min Rain = 0
KME1 040914Z 29001KT 18/17 A3007 RMK A01 T01750174  RH  099%=      5-min Rain = 0
KME1 040915Z 28001KT 18/17 A3007 RMK A01 T01760174  RH  099%=      5-min Rain = 0
KME1 040916Z 28000KT 18/17 A3007 RMK A01 T01750174  RH  099%=      5-min Rain = 0
KME1 040917Z 28000KT 18/17 A3007 RMK A01 T01750173  RH  099%=      5-min Rain = 0
KME1 040918Z 00000KT 18/17 A3007 RMK A01 T01750173  RH  099%=      5-min Rain = 0
KME1 040919Z 00000KT 18/17 A3007 RMK A01 T01750173  RH  099%=      5-min Rain = 0
KME1 040920Z 00000KT 18/17 A3007 RMK A01 T01750173  RH  099%=      5-min Rain = 0
KME1 040921Z 00000KT 18/17 A3006 RMK A01 T01750173  RH  099%=      5-min Rain = 0
KME1 040922Z 00000KT 17/17 A3006 RMK A01 T01740173  RH  099%=      5-min Rain = 0
KME1 040923Z 00000KT 17/17 A3006 RMK A01 T01740173  RH  099%=      5-min Rain = 0
KME1 040924Z 00000KT 17/17 A3006 RMK A01 T01740173  RH  100%=      5-min Rain = 0
KME1 040925Z 00000KT 17/17 A3006 RMK A01 T01740174  RH  100%=      5-min Rain = 0
KME1 040926Z 00000KT 17/17 A3006 RMK A01 T01740174  RH  100%=      5-min Rain = 0
KME1 040927Z 00000KT 17/17 A3006 RMK A01 T01740174  RH  100%=      5-min Rain = 0
KME1 040928Z 00000KT 17/17 A3006 RMK A01 T01740174  RH  100%=      5-min Rain = 0
KME1 040929Z 00000KT 17/17 A3006 RMK A01 T01740174  RH  100%=      5-min Rain = 0
KME1 040930Z 29000KT 17/17 A3006 RMK A01 T01740174  RH  100%=      5-min Rain = 0
KME1 040931Z 29001KT 17/17 A3006 RMK A01 T01740174  RH  100%=      5-min Rain = 0
KME1 040932Z 00000KT 18/18 A3006 RMK A01 T01750175  RH  100%=      5-min Rain = 0
KME1 040933Z 22000KT 18/18 A3006 RMK A01 T01750175  RH  100%=      5-min Rain = 0
KME1 040934Z 23001KT 18/18 A3006 RMK A01 T01750175  RH  100%=      5-min Rain = 0
KME1 040935Z 24001KT 18/18 A3006 RMK A01 T01750175  RH  100%=      5-min Rain = 0
KME1 040936Z 24001KT 18/18 A3006 RMK A01 T01760176  RH  100%=      5-min Rain = 0
KME1 040937Z 23000KT 18/18 A3006 RMK A01 T01760176  RH  100%=      5-min Rain = 0
KME1 040938Z 22000KT 18/18 A3006 RMK A01 T01760176  RH  100%=      5-min Rain = 0
KME1 040939Z 22001KT 18/17 A3006 RMK A01 T01760174  RH  098%=      5-min Rain = 0
KME1 040940Z 20003KT 18/17 A3006 RMK A01 T01760174  RH  099%=      5-min Rain = 0
KME1 040941Z 21002KT 18/18 A3006 RMK A01 T01760175  RH  099%=      5-min Rain = 0
KME1 040942Z 22001KT 18/18 A3006 RMK A01 T01760176  RH  100%=      5-min Rain = 0
KME1 040943Z 21001KT 18/17 A3006 RMK A01 T01760174  RH  099%=      5-min Rain = 0
KME1 040944Z 21002KT 18/17 A3006 RMK A01 T01760173  RH  098%=      5-min Rain = 0
KME1 040945Z 20002KT 18/17 A3006 RMK A01 T01750173  RH  098%=      5-min Rain = 0
KME1 040946Z 19002KT 18/17 A3006 RMK A01 T01750172  RH  098%=      5-min Rain = 0
KME1 040947Z 18002KT 18/17 A3006 RMK A01 T01750173  RH  099%=      5-min Rain = 0
KME1 040948Z 19003KT 18/17 A3006 RMK A01 T01750172  RH  098%=      5-min Rain = 0
KME1 040949Z 18002KT 17/17 A3006 RMK A01 T01740171  RH  098%=      5-min Rain = 0
KME1 040950Z 18002KT 17/17 A3006 RMK A01 T01730171  RH  098%=      5-min Rain = 0
KME1 040951Z 17002KT 17/17 A3006 RMK A01 T01740172  RH  099%=      5-min Rain = 0
KME1 040952Z 17002KT 17/17 A3006 RMK A01 T01730172  RH  099%=      5-min Rain = 0
KME1 040953Z 18002KT 17/17 A3006 RMK A01 T01730172  RH  099%=      5-min Rain = 0
KME1 040954Z 17002KT 17/17 A3006 RMK A01 T01730173  RH  100%=      5-min Rain = 0
KME1 040955Z 17003KT 17/17 A3006 RMK A01 T01730173  RH  100%=      5-min Rain = 0
KME1 040956Z 18003KT 17/17 A3006 RMK A01 T01730173  RH  100%=      5-min Rain = 0
KME1 040957Z 18004KT 17/17 A3006 RMK A01 T01730173  RH  100%=      5-min Rain = 0
KME1 040958Z 17003KT 17/17 A3006 RMK A01 T01740174  RH  100%=      5-min Rain = 0
KME1 040959Z 18004KT 18/18 A3006 RMK A01 T01750175  RH  100%=      5-min Rain = 0
KME1 041000Z 17003KT 18/18 A3006 RMK A01 T01760176  RH  100%=      5-min Rain = 0
KME1 041001Z 17003KT 18/18 A3006 RMK A01 T01760176  RH  100%=      5-min Rain = 0
KME1 041002Z 17003KT 18/18 A3006 RMK A01 T01760175  RH  099%=      5-min Rain = 0
KME1 041003Z 16003KT 18/17 A3006 RMK A01 T01760174  RH  099%=      5-min Rain = 0
KME1 041004Z 16004KT 18/18 A3006 RMK A01 T01760175  RH  099%=      5-min Rain = 0
KME1 041005Z 16003KT 18/17 A3006 RMK A01 T01770174  RH  098%=      5-min Rain = 0
KME1 041006Z 17003KT 18/17 A3006 RMK A01 T01770173  RH  098%=      5-min Rain = 0
KME1 041007Z 16003KT 18/17 A3006 RMK A01 T01770173  RH  098%=      5-min Rain = 0
KME1 041008Z 16003KT 18/18 A3005 RMK A01 T01770176  RH  099%=      5-min Rain = 0
KME1 041009Z 16003KT 18/18 A3005 RMK A01 T01780178  RH  100%=      5-min Rain = 0
KME1 041010Z 17004KT 18/18 A3005 RMK A01 T01800180  RH  100%=      5-min Rain = 0
KME1 041011Z 16004KT 18/18 A3005 RMK A01 T01830181  RH  099%=      5-min Rain = 0
KME1 041012Z 16004KT 19/18 A3006 RMK A01 T01850178  RH  096%=      5-min Rain = 0
KME1 041013Z 16003KT 19/18 A3006 RMK A01 T01860176  RH  094%=      5-min Rain = 0
KME1 041014Z 16003KT 19/18 A3006 RMK A01 T01860175  RH  093%=      5-min Rain = 0
KME1 041015Z 17003KT 19/17 A3006 RMK A01 T01870173  RH  092%=      5-min Rain = 0
KME1 041016Z 17003KT 19/17 A3006 RMK A01 T01870173  RH  091%=      5-min Rain = 0
KME1 041017Z 17003KT 19/17 A3006 RMK A01 T01870174  RH  092%=      5-min Rain = 0
KME1 041018Z 17003KT 19/18 A3006 RMK A01 T01880176  RH  093%=      5-min Rain = 0
KME1 041019Z 17003KT 19/18 A3006 RMK A01 T01890176  RH  092%=      5-min Rain = 0
KME1 041020Z 18004KT 19/18 A3006 RMK A01 T01890177  RH  092%=      5-min Rain = 0
KME1 041021Z 17003KT 19/18 A3006 RMK A01 T01910178  RH  092%=      5-min Rain = 0
KME1 041022Z 17003KT 19/18 A3006 RMK A01 T01920177  RH  091%=      5-min Rain = 0
KME1 041023Z 17003KT 19/18 A3006 RMK A01 T01930176  RH  090%=      5-min Rain = 0
KME1 041024Z 16003KT 19/18 A3006 RMK A01 T01930176  RH  090%=      5-min Rain = 0
KME1 041025Z 17003KT 19/18 A3006 RMK A01 T01940176  RH  090%=      5-min Rain = 0
KME1 041026Z 17003KT 19/18 A3006 RMK A01 T01940176  RH  089%=      5-min Rain = 0
KME1 041027Z 17003KT 19/18 A3006 RMK A01 T01940176  RH  089%=      5-min Rain = 0
KME1 041028Z 18003KT 20/18 A3006 RMK A01 T01950175  RH  088%=      5-min Rain = 0
KME1 041029Z 17003KT 20/18 A3006 RMK A01 T01950176  RH  089%=      5-min Rain = 0
KME1 041030Z 17003KT 20/18 A3006 RMK A01 T01960177  RH  089%=      5-min Rain = 0
KME1 041031Z 18003KT 20/18 A3006 RMK A01 T01970177  RH  088%=      5-min Rain = 0
KME1 041032Z 17003KT 20/18 A3006 RMK A01 T01980177  RH  088%=      5-min Rain = 0
KME1 041033Z 17003KT 20/18 A3006 RMK A01 T01980177  RH  087%=      5-min Rain = 0
KME1 041034Z 18004KT 20/18 A3006 RMK A01 T01990177  RH  087%=      5-min Rain = 0
KME1 041035Z 18003KT 20/18 A3006 RMK A01 T02000177  RH  087%=      5-min Rain = 0
KME1 041036Z 18002KT 20/18 A3006 RMK A01 T02010176  RH  086%=      5-min Rain = 0
KME1 041037Z 20002KT 20/18 A3006 RMK A01 T02020176  RH  085%=      5-min Rain = 0
KME1 041038Z 19002KT 20/18 A3006 RMK A01 T02030176  RH  084%=      5-min Rain = 0
KME1 041039Z 18002KT 20/18 A3006 RMK A01 T02030175  RH  084%=      5-min Rain = 0
KME1 041040Z 18002KT 20/18 A3006 RMK A01 T02030175  RH  084%=      5-min Rain = 0
KME1 041041Z 17002KT 20/18 A3006 RMK A01 T02030175  RH  084%=      5-min Rain = 0
KME1 041042Z 15002KT 20/17 A3006 RMK A01 T02040174  RH  083%=      5-min Rain = 0
KME1 041043Z 17003KT 20/17 A3006 RMK A01 T02030172  RH  082%=      5-min Rain = 0
KME1 041044Z 17002KT 20/17 A3006 RMK A01 T02010171  RH  083%=      5-min Rain = 0
KME1 041045Z 16001KT 20/17 A3006 RMK A01 T02000171  RH  083%=      5-min Rain = 0
KME1 041046Z 15001KT 20/17 A3006 RMK A01 T01980169  RH  083%=      5-min Rain = 0
KME1 041047Z 14002KT 20/17 A3006 RMK A01 T01950169  RH  085%=      5-min Rain = 0
KME1 041048Z 12001KT 19/17 A3006 RMK A01 T01940169  RH  086%=      5-min Rain = 0
KME1 041049Z 11001KT 19/17 A3006 RMK A01 T01930172  RH  087%=      5-min Rain = 0
KME1 041050Z 11001KT 19/17 A3006 RMK A01 T01930171  RH  087%=      5-min Rain = 0
KME1 041051Z 12001KT 19/17 A3006 RMK A01 T01920172  RH  088%=      5-min Rain = 0
KME1 041052Z 12001KT 19/17 A3006 RMK A01 T01910172  RH  089%=      5-min Rain = 0
KME1 041053Z 10001KT 19/17 A3006 RMK A01 T01910173  RH  090%=      5-min Rain = 0
KME1 041054Z 10002KT 19/17 A3006 RMK A01 T01900174  RH  090%=      5-min Rain = 0
KME1 041055Z 10002KT 19/17 A3006 RMK A01 T01900173  RH  089%=      5-min Rain = 0
KME1 041056Z 10002KT 19/17 A3006 RMK A01 T01890172  RH  089%=      5-min Rain = 0
KME1 041057Z 10002KT 19/17 A3006 RMK A01 T01880172  RH  090%=      5-min Rain = 0
KME1 041058Z 09003KT 19/17 A3006 RMK A01 T01870172  RH  091%=      5-min Rain = 0
KME1 041059Z 09003KT 19/17 A3006 RMK A01 T01860174  RH  093%=      5-min Rain = 0
KME1 041100Z 09003KT 19/17 A3006 RMK A01 T01860174  RH  093%=      5-min Rain = 0
KME1 041101Z 09003KT 19/18 A3006 RMK A01 T01850176  RH  094%=      5-min Rain = 0
KME1 041102Z 08003KT 19/18 A3006 RMK A01 T01850176  RH  094%=      5-min Rain = 0
KME1 041103Z 08003KT 19/18 A3006 RMK A01 T01860177  RH  094%=      5-min Rain = 0
KME1 041104Z 08003KT 19/18 A3006 RMK A01 T01860175  RH  093%=      5-min Rain = 0
KME1 041105Z 08003KT 19/18 A3006 RMK A01 T01850175  RH  094%=      5-min Rain = 0
KME1 041106Z 08003KT 19/18 A3006 RMK A01 T01850178  RH  095%=      5-min Rain = 0
KME1 041107Z 08003KT 19/18 A3006 RMK A01 T01860178  RH  095%=      5-min Rain = 0
KME1 041108Z 07003KT 19/18 A3006 RMK A01 T01860177  RH  095%=      5-min Rain = 0
KME1 041109Z 08003KT 19/18 A3007 RMK A01 T01860178  RH  095%=      5-min Rain = 0
KME1 041110Z 08003KT 19/18 A3007 RMK A01 T01860178  RH  095%=      5-min Rain = 0
KME1 041111Z 08003KT 19/18 A3007 RMK A01 T01860178  RH  095%=      5-min Rain = 0
KME1 041112Z 08002KT 19/18 A3007 RMK A01 T01860178  RH  095%=      5-min Rain = 0
KME1 041113Z 09002KT 19/18 A3006 RMK A01 T01860178  RH  095%=      5-min Rain = 0
KME1 041114Z 09002KT 19/18 A3006 RMK A01 T01860179  RH  096%=      5-min Rain = 0
KME1 041115Z 10002KT 19/18 A3006 RMK A01 T01860179  RH  096%=      5-min Rain = 0
KME1 041116Z 10002KT 19/18 A3006 RMK A01 T01860179  RH  096%=      5-min Rain = 0
KME1 041117Z 10002KT 19/18 A3006 RMK A01 T01860178  RH  095%=      5-min Rain = 0
KME1 041118Z 11002KT 19/18 A3006 RMK A01 T01860178  RH  095%=      5-min Rain = 0
KME1 041119Z 11002KT 19/18 A3006 RMK A01 T01860179  RH  095%=      5-min Rain = 0
KME1 041120Z 11002KT 19/18 A3006 RMK A01 T01870179  RH  095%=      5-min Rain = 0
KME1 041121Z 11003KT 19/18 A3007 RMK A01 T01870179  RH  095%=      5-min Rain = 0
KME1 041122Z 11002KT 19/18 A3007 RMK A01 T01870179  RH  095%=      5-min Rain = 0
KME1 041123Z 11002KT 19/18 A3007 RMK A01 T01870179  RH  095%=      5-min Rain = 0
KME1 041124Z 11002KT 19/18 A3007 RMK A01 T01870179  RH  095%=      5-min Rain = 0
KME1 041125Z 10002KT 19/18 A3007 RMK A01 T01870178  RH  095%=      5-min Rain = 0
KME1 041126Z 10002KT 19/18 A3007 RMK A01 T01870177  RH  094%=      5-min Rain = 0
KME1 041127Z 10002KT 19/18 A3007 RMK A01 T01870177  RH  094%=      5-min Rain = 0
KME1 041128Z 08002KT 19/18 A3007 RMK A01 T01870177  RH  094%=      5-min Rain = 0
KME1 041129Z 07001KT 19/18 A3007 RMK A01 T01870177  RH  094%=      5-min Rain = 0
KME1 041130Z 05002KT 19/18 A3007 RMK A01 T01870178  RH  095%=      5-min Rain = 0
KME1 041131Z 04002KT 19/18 A3007 RMK A01 T01870178  RH  094%=      5-min Rain = 0
KME1 041132Z 03002KT 19/18 A3007 RMK A01 T01870177  RH  094%=      5-min Rain = 0
KME1 041133Z 04003KT 19/18 A3007 RMK A01 T01870177  RH  094%=      5-min Rain = 0
KME1 041134Z 04003KT 19/18 A3007 RMK A01 T01860176  RH  094%=      5-min Rain = 0
KME1 041135Z 04003KT 19/18 A3007 RMK A01 T01860176  RH  094%=      5-min Rain = 0
KME1 041136Z 05003KT 19/18 A3007 RMK A01 T01850176  RH  095%=      5-min Rain = 0
KME1 041137Z 05003KT 18/18 A3007 RMK A01 T01840176  RH  095%=      5-min Rain = 0
KME1 041138Z 05003KT 18/18 A3007 RMK A01 T01830176  RH  096%=      5-min Rain = 0
KME1 041139Z 05003KT 18/18 A3007 RMK A01 T01830177  RH  096%=      5-min Rain = 0
KME1 041140Z 05003KT 18/18 A3007 RMK A01 T01820178  RH  097%=      5-min Rain = 0
KME1 041141Z 06003KT 18/18 A3007 RMK A01 T01820178  RH  098%=      5-min Rain = 0
KME1 041142Z 07003KT 18/18 A3007 RMK A01 T01810178  RH  098%=      5-min Rain = 0
KME1 041143Z 08003KT 18/18 A3007 RMK A01 T01810179  RH  099%=      5-min Rain = 0
KME1 041144Z 08003KT 18/18 A3007 RMK A01 T01800179  RH  099%=      5-min Rain = 0
KME1 041145Z 09004KT 18/18 A3007 RMK A01 T01800179  RH  100%=      5-min Rain = 0
KME1 041146Z 10004KT 18/18 A3007 RMK A01 T01790180  RH  100%=      5-min Rain = 0
KME1 041147Z 10004KT 18/18 A3007 RMK A01 T01790179  RH  100%=      5-min Rain = 0
KME1 041148Z 10004KT 18/18 A3007 RMK A01 T01790179  RH  100%=      5-min Rain = 0
KME1 041149Z 11004KT 18/18 A3007 RMK A01 T01790179  RH  100%=      5-min Rain = 0
KME1 041150Z 12004KT 18/18 A3007 RMK A01 T01790179  RH  100%=      5-min Rain = 0
KME1 041151Z 12004KT 18/18 A3007 RMK A01 T01790179  RH  100%=      5-min Rain = 0
KME1 041152Z 12003KT 18/18 A3007 RMK A01 T01790179  RH  100%=      5-min Rain = 0
KME1 041153Z 12003KT 18/18 A3007 RMK A01 T01790179  RH  100%=      5-min Rain = 0
KME1 041154Z 12003KT 18/18 A3007 RMK A01 T01800180  RH  100%=      5-min Rain = 0
KME1 041155Z 13004KT 18/18 A3007 RMK A01 T01810181  RH  100%=      5-min Rain = 0
KME1 041156Z 13004KT 18/18 A3007 RMK A01 T01810181  RH  100%=      5-min Rain = 0
KME1 041157Z 13004KT 18/18 A3007 RMK A01 T01820182  RH  100%=      5-min Rain = 0
KME1 041158Z 13004KT 18/18 A3007 RMK A01 T01830183  RH  100%=      5-min Rain = 0
KME1 041159Z 14004KT 18/18 A3007 RMK A01 T01840183  RH  100%=      5-min Rain = 0
KME1 041200Z 14005KT 19/18 A3007 RMK A01 T01850183  RH  098%=      5-min Rain = 0
KME1 041201Z 14004KT 19/18 A3007 RMK A01 T01860181  RH  097%=      5-min Rain = 0
KME1 041202Z 15004KT 19/18 A3007 RMK A01 T01870180  RH  096%=      5-min Rain = 0
KME1 041203Z 16004KT 19/18 A3007 RMK A01 T01880180  RH  095%=      5-min Rain = 0
KME1 041204Z 16004KT 19/18 A3007 RMK A01 T01890179  RH  094%=      5-min Rain = 0
KME1 041205Z 17005KT 19/18 A3007 RMK A01 T01910179  RH  093%=      5-min Rain = 0
KME1 041206Z 17005KT 19/18 A3007 RMK A01 T01920179  RH  092%=      5-min Rain = 0
KME1 041207Z 17005KT 19/18 A3007 RMK A01 T01940178  RH  091%=      5-min Rain = 0
KME1 041208Z 17004KT 19/18 A3007 RMK A01 T01940178  RH  090%=      5-min Rain = 0
KME1 041209Z 17004KT 20/18 A3007 RMK A01 T01950177  RH  089%=      5-min Rain = 0
KME1 041210Z 17005KT 20/18 A3007 RMK A01 T01960177  RH  089%=      5-min Rain = 0
KME1 041211Z 17005KT 20/18 A3007 RMK A01 T01970177  RH  088%=      5-min Rain = 0
KME1 041212Z 17005KT 20/18 A3007 RMK A01 T01980177  RH  088%=      5-min Rain = 0
KME1 041213Z 17004KT 20/18 A3007 RMK A01 T01990177  RH  087%=      5-min Rain = 0
KME1 041214Z 17005KT 20/18 A3007 RMK A01 T02000177  RH  087%=      5-min Rain = 0
KME1 041215Z 17004KT 20/18 A3007 RMK A01 T02000177  RH  086%=      5-min Rain = 0
KME1 041216Z 17005KT 20/18 A3007 RMK A01 T02010177  RH  086%=      5-min Rain = 0
KME1 041217Z 17006KT 20/18 A3007 RMK A01 T02020177  RH  086%=      5-min Rain = 0
KME1 041218Z 17006KT 20/18 A3007 RMK A01 T02030177  RH  085%=      5-min Rain = 0
KME1 041219Z 17006KT 20/18 A3007 RMK A01 T02040178  RH  085%=      5-min Rain = 0
KME1 041220Z 17006KT 21/18 A3007 RMK A01 T02050177  RH  084%=      5-min Rain = 0
KME1 041221Z 17005KT 21/18 A3007 RMK A01 T02070177  RH  083%=      5-min Rain = 0
KME1 041222Z 17006KT 21/18 A3007 RMK A01 T02080177  RH  083%=      5-min Rain = 0
KME1 041223Z 17006KT 21/18 A3007 RMK A01 T02080177  RH  083%=      5-min Rain = 0
KME1 041224Z 18006KT 21/18 A3007 RMK A01 T02080177  RH  082%=      5-min Rain = 0
KME1 041225Z 18006KT 21/18 A3007 RMK A01 T02080177  RH  082%=      5-min Rain = 0
KME1 041226Z 18006KT 21/18 A3007 RMK A01 T02090177  RH  082%=      5-min Rain = 0
KME1 041227Z 18007KT 21/18 A3007 RMK A01 T02090177  RH  082%=      5-min Rain = 0
KME1 041228Z 18005KT 21/18 A3007 RMK A01 T02090177  RH  082%=      5-min Rain = 0
KME1 041229Z 18006KT 21/18 A3007 RMK A01 T02090177  RH  082%=      5-min Rain = 0
KME1 041230Z 18005KT 21/18 A3007 RMK A01 T02090177  RH  082%=      5-min Rain = 0
KME1 041231Z 18005KT 21/18 A3007 RMK A01 T02090176  RH  082%=      5-min Rain = 0
KME1 041232Z 18005KT 21/18 A3007 RMK A01 T02090177  RH  082%=      5-min Rain = 0
KME1 041233Z 18006KT 21/18 A3007 RMK A01 T02090177  RH  082%=      5-min Rain = 0
KME1 041234Z 18005KT 21/18 A3007 RMK A01 T02090177  RH  081%=      5-min Rain = 0
KME1 041235Z 18005KT 21/18 A3007 RMK A01 T02100177  RH  081%=      5-min Rain = 0
KME1 041236Z 17005KT 21/18 A3007 RMK A01 T02100177  RH  081%=      5-min Rain = 0
KME1 041237Z 17006KT 21/18 A3007 RMK A01 T02100177  RH  081%=      5-min Rain = 0
KME1 041238Z 18005KT 21/18 A3007 RMK A01 T02110177  RH  081%=      5-min Rain = 0
KME1 041239Z 17005KT 21/18 A3007 RMK A01 T02110177  RH  081%=      5-min Rain = 0
KME1 041240Z 18006KT 21/18 A3007 RMK A01 T02110177  RH  081%=      5-min Rain = 0
KME1 041241Z 18005KT 21/18 A3007 RMK A01 T02110177  RH  081%=      5-min Rain = 0
KME1 041242Z 18005KT 21/18 A3007 RMK A01 T02110177  RH  081%=      5-min Rain = 0
KME1 041243Z 19005KT 21/18 A3007 RMK A01 T02120177  RH  081%=      5-min Rain = 0
KME1 041244Z 18005KT 21/18 A3008 RMK A01 T02120177  RH  080%=      5-min Rain = 0
KME1 041245Z 18005KT 21/18 A3008 RMK A01 T02130178  RH  080%=      5-min Rain = 0
KME1 041246Z 18005KT 21/18 A3008 RMK A01 T02130178  RH  080%=      5-min Rain = 0
KME1 041247Z 18005KT 21/18 A3007 RMK A01 T02140177  RH  080%=      5-min Rain = 0
KME1 041248Z 18004KT 21/18 A3007 RMK A01 T02140178  RH  080%=      5-min Rain = 0
KME1 041249Z 18004KT 22/18 A3007 RMK A01 T02150178  RH  079%=      5-min Rain = 0
KME1 041250Z 18005KT 22/18 A3007 RMK A01 T02150178  RH  079%=      5-min Rain = 0
KME1 041251Z 18005KT 22/18 A3007 RMK A01 T02160178  RH  079%=      5-min Rain = 0
KME1 041252Z 18004KT 22/18 A3007 RMK A01 T02160178  RH  079%=      5-min Rain = 0
KME1 041253Z 18005KT 22/18 A3007 RMK A01 T02160178  RH  079%=      5-min Rain = 0
KME1 041254Z 18005KT 22/18 A3007 RMK A01 T02160178  RH  079%=      5-min Rain = 0
KME1 041255Z 18005KT 22/18 A3007 RMK A01 T02160178  RH  079%=      5-min Rain = 0
KME1 041256Z 18005KT 22/18 A3007 RMK A01 T02160177  RH  079%=      5-min Rain = 0
KME1 041257Z 18005KT 22/18 A3007 RMK A01 T02170178  RH  079%=      5-min Rain = 0
KME1 041258Z 18005KT 22/18 A3007 RMK A01 T02180178  RH  078%=      5-min Rain = 0
KME1 041259Z 18005KT 22/18 A3007 RMK A01 T02180178  RH  078%=      5-min Rain = 0
KME1 041300Z 18004KT 22/18 A3007 RMK A01 T02190179  RH  078%=      5-min Rain = 0
KME1 041301Z 17005KT 22/18 A3007 RMK A01 T02200179  RH  078%=      5-min Rain = 0
KME1 041302Z 17005KT 22/18 A3007 RMK A01 T02200178  RH  077%=      5-min Rain = 0
KME1 041303Z 17005KT 22/18 A3007 RMK A01 T02210179  RH  077%=      5-min Rain = 0
KME1 041304Z 17005KT 22/18 A3007 RMK A01 T02210178  RH  076%=      5-min Rain = 0
KME1 041305Z 17005KT 22/18 A3007 RMK A01 T02210179  RH  077%=      5-min Rain = 0
KME1 041306Z 18005KT 22/18 A3007 RMK A01 T02210178  RH  077%=      5-min Rain = 0
KME1 041307Z 17005KT 22/18 A3007 RMK A01 T02220178  RH  076%=      5-min Rain = 0
KME1 041308Z 16004KT 22/18 A3007 RMK A01 T02220179  RH  076%=      5-min Rain = 0
KME1 041309Z 17006KT 22/18 A3007 RMK A01 T02220178  RH  076%=      5-min Rain = 0
KME1 041310Z 17006KT 22/18 A3007 RMK A01 T02230178  RH  076%=      5-min Rain = 0
KME1 041311Z 17004KT 22/18 A3007 RMK A01 T02230178  RH  076%=      5-min Rain = 0
KME1 041312Z 17005KT 22/18 A3007 RMK A01 T02240180  RH  076%=      5-min Rain = 0
KME1 041313Z 18005KT 23/18 A3008 RMK A01 T02250179  RH  075%=      5-min Rain = 0
KME1 041314Z 17004KT 23/18 A3008 RMK A01 T02250179  RH  075%=      5-min Rain = 0
KME1 041315Z 17005KT 23/18 A3008 RMK A01 T02250179  RH  075%=      5-min Rain = 0
KME1 041316Z 17005KT 23/18 A3008 RMK A01 T02250179  RH  075%=      5-min Rain = 0
KME1 041317Z 18006KT 23/18 A3008 RMK A01 T02250178  RH  075%=      5-min Rain = 0
KME1 041318Z 18006KT 23/18 A3008 RMK A01 T02250179  RH  075%=      5-min Rain = 0
KME1 041319Z 17006KT 23/18 A3008 RMK A01 T02250179  RH  075%=      5-min Rain = 0
KME1 041320Z 17006KT 23/18 A3008 RMK A01 T02250178  RH  075%=      5-min Rain = 0
KME1 041321Z 18005KT 23/18 A3008 RMK A01 T02250178  RH  075%=      5-min Rain = 0
KME1 041322Z 17006KT 23/18 A3008 RMK A01 T02250178  RH  075%=      5-min Rain = 0
KME1 041323Z 17005KT 23/18 A3008 RMK A01 T02250178  RH  075%=      5-min Rain = 0
KME1 041324Z 17006KT 23/18 A3008 RMK A01 T02250178  RH  075%=      5-min Rain = 0
KME1 041325Z 17007KT 23/18 A3008 RMK A01 T02250179  RH  075%=      5-min Rain = 0
KME1 041326Z 17007KT 23/18 A3008 RMK A01 T02250178  RH  075%=      5-min Rain = 0
KME1 041327Z 17007KT 23/18 A3008 RMK A01 T02250177  RH  074%=      5-min Rain = 0
KME1 041328Z 17005KT 23/18 A3008 RMK A01 T02260178  RH  074%=      5-min Rain = 0
KME1 041329Z 17006KT 23/18 A3008 RMK A01 T02260179  RH  074%=      5-min Rain = 0
KME1 041330Z 18006KT 23/18 A3008 RMK A01 T02260178  RH  074%=      5-min Rain = 0
KME1 041331Z 16006KT 23/18 A3008 RMK A01 T02270178  RH  074%=      5-min Rain = 0
KME1 041332Z 17007KT 23/18 A3008 RMK A01 T02270178  RH  074%=      5-min Rain = 0
KME1 041333Z 17007KT 23/18 A3008 RMK A01 T02280178  RH  073%=      5-min Rain = 0
KME1 041334Z 17008KT 23/18 A3008 RMK A01 T02290178  RH  073%=      5-min Rain = 0
KME1 041335Z 17006KT 23/18 A3008 RMK A01 T02300179  RH  073%=      5-min Rain = 0
KME1 041336Z 17008KT 23/18 A3008 RMK A01 T02310179  RH  072%=      5-min Rain = 0
KME1 041337Z 17006KT 23/18 A3008 RMK A01 T02320179  RH  072%=      5-min Rain = 0
KME1 041338Z 17008KT 23/18 A3008 RMK A01 T02330178  RH  072%=      5-min Rain = 0
KME1 041339Z 17006KT 23/18 A3008 RMK A01 T02340179  RH  071%=      5-min Rain = 0
KME1 041340Z 17006KT 23/18 A3008 RMK A01 T02340179  RH  071%=      5-min Rain = 0
KME1 041341Z 18006KT 23/18 A3008 RMK A01 T02340179  RH  071%=      5-min Rain = 0
KME1 041342Z 17007KT 24/18 A3008 RMK A01 T02350179  RH  071%=      5-min Rain = 0
KME1 041343Z 19007KT 24/18 A3008 RMK A01 T02350178  RH  070%=      5-min Rain = 0
KME1 041344Z 17005KT 24/18 A3008 RMK A01 T02350179  RH  071%=      5-min Rain = 0
KME1 041345Z 18007KT 24/18 A3008 RMK A01 T02360179  RH  070%=      5-min Rain = 0
KME1 041346Z 17006KT 24/18 A3008 RMK A01 T02360178  RH  070%=      5-min Rain = 0
KME1 041347Z 17007KT 24/18 A3008 RMK A01 T02360177  RH  070%=      5-min Rain = 0
KME1 041348Z 18007KT 24/18 A3008 RMK A01 T02360177  RH  070%=      5-min Rain = 0
KME1 041349Z 18007KT 24/18 A3008 RMK A01 T02360178  RH  070%=      5-min Rain = 0
KME1 041350Z 18007KT 24/18 A3008 RMK A01 T02360178  RH  070%=      5-min Rain = 0
KME1 041351Z 17005KT 24/18 A3008 RMK A01 T02370178  RH  070%=      5-min Rain = 0
KME1 041352Z 18005KT 24/18 A3008 RMK A01 T02370179  RH  070%=      5-min Rain = 0
KME1 041353Z 17005KT 24/18 A3008 RMK A01 T02380179  RH  070%=      5-min Rain = 0
KME1 041354Z 18006KT 24/18 A3008 RMK A01 T02380179  RH  070%=      5-min Rain = 0
KME1 041355Z 18007KT 24/18 A3008 RMK A01 T02390179  RH  069%=      5-min Rain = 0
KME1 041356Z 18009KT 24/18 A3008 RMK A01 T02390178  RH  069%=      5-min Rain = 0
KME1 041357Z 17007KT 24/18 A3008 RMK A01 T02400178  RH  068%=      5-min Rain = 0
KME1 041358Z 17007KT 24/18 A3008 RMK A01 T02400178  RH  069%=      5-min Rain = 0
KME1 041359Z 17007KT 24/18 A3008 RMK A01 T02410178  RH  068%=      5-min Rain = 0
KME1 041400Z 18005KT 24/18 A3008 RMK A01 T02420180  RH  068%=      5-min Rain = 0
KME1 041401Z 17005KT 24/18 A3008 RMK A01 T02430179  RH  068%=      5-min Rain = 0
KME1 041402Z 17006KT 24/18 A3009 RMK A01 T02430179  RH  067%=      5-min Rain = 0
KME1 041403Z 18006KT 24/18 A3009 RMK A01 T02440180  RH  067%=      5-min Rain = 0
KME1 041404Z 17008KT 25/18 A3009 RMK A01 T02450179  RH  066%=      5-min Rain = 0
KME1 041405Z 17006KT 25/18 A3009 RMK A01 T02450178  RH  066%=      5-min Rain = 0
KME1 041406Z 17005KT 25/18 A3009 RMK A01 T02460179  RH  066%=      5-min Rain = 0
KME1 041407Z 17008KT 25/18 A3009 RMK A01 T02460179  RH  066%=      5-min Rain = 0
KME1 041408Z 18007KT 25/18 A3009 RMK A01 T02480179  RH  066%=      5-min Rain = 0
KME1 041409Z 18005KT 25/18 A3009 RMK A01 T02480180  RH  066%=      5-min Rain = 0
KME1 041410Z 18005KT 25/18 A3009 RMK A01 T02500181  RH  065%=      5-min Rain = 0
KME1 041411Z 17004KT 25/18 A3009 RMK A01 T02510181  RH  065%=      5-min Rain = 0
KME1 041412Z 17006KT 25/18 A3009 RMK A01 T02530181  RH  065%=      5-min Rain = 0
KME1 041413Z 17007KT 25/18 A3009 RMK A01 T02540181  RH  064%=      5-min Rain = 0
KME1 041414Z 16006KT 25/18 A3009 RMK A01 T02540179  RH  063%=      5-min Rain = 0
KME1 041415Z 18006KT 25/18 A3009 RMK A01 T02530180  RH  064%=      5-min Rain = 0
KME1 041416Z 18007KT 25/18 A3009 RMK A01 T02530179  RH  063%=      5-min Rain = 0
KME1 041417Z 17005KT 25/18 A3009 RMK A01 T02540179  RH  063%=      5-min Rain = 0
KME1 041418Z 16006KT 26/18 A3009 RMK A01 T02550180  RH  063%=      5-min Rain = 0
KME1 041419Z 17007KT 26/18 A3009 RMK A01 T02570179  RH  062%=      5-min Rain = 0
KME1 041420Z 17005KT 26/18 A3009 RMK A01 T02590180  RH  062%=      5-min Rain = 0
KME1 041421Z 18006KT 26/18 A3009 RMK A01 T02610182  RH  062%=      5-min Rain = 0
KME1 041422Z 17004KT 26/18 A3009 RMK A01 T02630182  RH  061%=      5-min Rain = 0
KME1 041423Z 16006KT 26/18 A3009 RMK A01 T02640182  RH  061%=      5-min Rain = 0
KME1 041424Z 17007KT 27/18 A3009 RMK A01 T02650180  RH  060%=      5-min Rain = 0
KME1 041425Z 16006KT 27/18 A3009 RMK A01 T02650181  RH  060%=      5-min Rain = 0
KME1 041426Z 17006KT 27/18 A3009 RMK A01 T02660181  RH  060%=      5-min Rain = 0
KME1 041427Z 16006KT 27/18 A3009 RMK A01 T02680180  RH  059%=      5-min Rain = 0
KME1 041428Z 16006KT 27/18 A3009 RMK A01 T02680181  RH  059%=      5-min Rain = 0
KME1 041429Z 16006KT 27/18 A3009 RMK A01 T02680180  RH  059%=      5-min Rain = 0
KME1 041430Z 17007KT 27/18 A3009 RMK A01 T02690180  RH  058%=      5-min Rain = 0
KME1 041431Z 18009KT 27/18 A3009 RMK A01 T02710179  RH  057%=      5-min Rain = 0
KME1 041432Z 18008KT 27/18 A3009 RMK A01 T02720179  RH  057%=      5-min Rain = 0
KME1 041433Z 18009KT 27/18 A3009 RMK A01 T02740177  RH  056%=      5-min Rain = 0
KME1 041434Z 18008KT 27/18 A3009 RMK A01 T02740177  RH  056%=      5-min Rain = 0
KME1 041435Z 17007KT 27/18 A3009 RMK A01 T02740176  RH  055%=      5-min Rain = 0
KME1 041436Z 17008KT 28/18 A3009 RMK A01 T02750178  RH  055%=      5-min Rain = 0
KME1 041437Z 18006KT 28/18 A3009 RMK A01 T02770179  RH  055%=      5-min Rain = 0
KME1 041438Z 17009KT 28/18 A3009 RMK A01 T02790177  RH  054%=      5-min Rain = 0
KME1 041439Z 17007KT 28/18 A3009 RMK A01 T02800180  RH  054%=      5-min Rain = 0
KME1 041440Z 18007KT 28/18 A3009 RMK A01 T02810179  RH  054%=      5-min Rain = 0
KME1 041441Z 20006KT 28/18 A3009 RMK A01 T02830178  RH  053%=      5-min Rain = 0
KME1 041442Z 18008KT 29/18 A3008 RMK A01 T02850176  RH  052%=      5-min Rain = 0
KME1 041443Z 18007KT 29/18 A3008 RMK A01 T02850175  RH  051%=      5-min Rain = 0
KME1 041444Z 18007KT 29/18 A3008 RMK A01 T02850175  RH  051%=      5-min Rain = 0
KME1 041445Z 17010KT 29/17 A3008 RMK A01 T02850174  RH  051%=      5-min Rain = 0
KME1 041446Z 17009KT 29/17 A3008 RMK A01 T02850173  RH  051%=      5-min Rain = 0
KME1 041447Z 17007KT 29/17 A3008 RMK A01 T02860174  RH  051%=      5-min Rain = 0
KME1 041448Z 17008KT 29/18 A3008 RMK A01 T02860175  RH  051%=      5-min Rain = 0
KME1 041449Z 18008KT 29/17 A3008 RMK A01 T02870174  RH  050%=      5-min Rain = 0
KME1 041450Z 18007KT 29/17 A3009 RMK A01 T02890174  RH  050%=      5-min Rain = 0
KME1 041451Z 16007KT 29/18 A3008 RMK A01 T02900175  RH  050%=      5-min Rain = 0
KME1 041452Z 18007KT 29/18 A3009 RMK A01 T02910176  RH  050%=      5-min Rain = 0
KME1 041453Z 19008KT 29/18 A3009 RMK A01 T02930175  RH  049%=      5-min Rain = 0
KME1 041454Z 18008G15KT 30/17 A3009 RMK A01 T02950174  RH  048%=      5-min Rain = 0
KME1 041455Z 18012KT 30/17 A3008 RMK A01 T02960169  RH  046%=      5-min Rain = 0
KME1 041456Z 18012KT 29/17 A3008 RMK A01 T02940167  RH  046%=      5-min Rain = 0
KME1 041457Z 18011KT 29/17 A3008 RMK A01 T02920166  RH  047%=      5-min Rain = 0
KME1 041458Z 18009KT 29/17 A3008 RMK A01 T02920167  RH  047%=      5-min Rain = 0
KME1 041459Z 18009KT 29/17 A3008 RMK A01 T02930167  RH  047%=      5-min Rain = 0
KME1 041500Z 18010KT 29/17 A3008 RMK A01 T02940168  RH  046%=      5-min Rain = 0
KME1 041501Z 18012KT 30/16 A3008 RMK A01 T02960163  RH  045%=      5-min Rain = 0
KME1 041502Z 18009KT 30/16 A3008 RMK A01 T02970162  RH  044%=      5-min Rain = 0
KME1 041503Z 19012KT 30/16 A3008 RMK A01 T02980163  RH  044%=      5-min Rain = 0
KME1 041504Z 19011KT 30/16 A3008 RMK A01 T02990161  RH  043%=      5-min Rain = 0
KME1 041505Z 19008KT 30/16 A3009 RMK A01 T02990160  RH  043%=      5-min Rain = 0
KME1 041506Z 19009KT 30/16 A3009 RMK A01 T03010161  RH  043%=      5-min Rain = 0
KME1 041507Z 18011G16KT 30/16 A3009 RMK A01 T03030159  RH  042%=      5-min Rain = 0
KME1 041508Z 19013KT 30/16 A3009 RMK A01 T03030156  RH  041%=      5-min Rain = 0
KME1 041509Z 19012KT 30/15 A3009 RMK A01 T03030154  RH  040%=      5-min Rain = 0
KME1 041510Z 20013KT 30/15 A3009 RMK A01 T03030154  RH  040%=      5-min Rain = 0
KME1 041511Z 19011G17KT 30/15 A3009 RMK A01 T03030153  RH  040%=      5-min Rain = 0
KME1 041512Z 20014KT 30/15 A3009 RMK A01 T03040154  RH  040%=      5-min Rain = 0
KME1 041513Z 20009G15KT 30/15 A3009 RMK A01 T03040152  RH  040%=      5-min Rain = 0
KME1 041514Z 21014KT 31/15 A3009 RMK A01 T03060153  RH  040%=      5-min Rain = 0
KME1 041515Z 20011G17KT 31/15 A3008 RMK A01 T03070153  RH  039%=      5-min Rain = 0
KME1 041516Z 20010KT 31/15 A3008 RMK A01 T03070154  RH  039%=      5-min Rain = 0
KME1 041517Z 20010G16KT 31/16 A3008 RMK A01 T03090155  RH  039%=      5-min Rain = 0
KME1 041518Z 20009KT 31/16 A3009 RMK A01 T03110155  RH  039%=      5-min Rain = 0
KME1 041519Z 18007KT 31/16 A3009 RMK A01 T03120156  RH  039%=      5-min Rain = 0
KME1 041520Z 18009G15KT 31/16 A3009 RMK A01 T03140156  RH  039%=      5-min Rain = 0
KME1 041521Z 18012KT 32/15 A3009 RMK A01 T03150154  RH  038%=      5-min Rain = 0
KME1 041522Z 18009G14KT 31/15 A3009 RMK A01 T03130152  RH  038%=      5-min Rain = 0
KME1 041523Z 19012KT 31/15 A3009 RMK A01 T03120152  RH  038%=      5-min Rain = 0
KME1 041524Z 20011KT 31/15 A3009 RMK A01 T03120151  RH  038%=      5-min Rain = 0
KME1 041525Z 20012KT 31/15 A3009 RMK A01 T03120151  RH  038%=      5-min Rain = 0
KME1 041526Z 21012KT 31/15 A3009 RMK A01 T03130150  RH  037%=      5-min Rain = 0
KME1 041527Z 19011G16KT 31/15 A3009 RMK A01 T03130148  RH  037%=      5-min Rain = 0
KME1 041528Z 18013G18KT 31/15 A3009 RMK A01 T03120148  RH  037%=      5-min Rain = 0
KME1 041529Z 18013KT 31/15 A3009 RMK A01 T03130146  RH  036%=      5-min Rain = 0
KME1 041530Z 18010G15KT 32/15 A3009 RMK A01 T03150146  RH  036%=      5-min Rain = 0
KME1 041531Z 19009KT 32/15 A3009 RMK A01 T03160146  RH  036%=      5-min Rain = 0
KME1 041532Z 20010KT 32/15 A3009 RMK A01 T03180148  RH  036%=      5-min Rain = 0
KME1 041533Z 20012KT 32/15 A3009 RMK A01 T03190147  RH  035%=      5-min Rain = 0
KME1 041534Z 19011KT 32/15 A3009 RMK A01 T03180146  RH  035%=      5-min Rain = 0
KME1 041535Z 19012KT 32/15 A3009 RMK A01 T03180146  RH  035%=      5-min Rain = 0
KME1 041536Z 19013KT 32/15 A3009 RMK A01 T03180145  RH  035%=      5-min Rain = 0
KME1 041537Z 19015KT 32/14 A3009 RMK A01 T03170142  RH  035%=      5-min Rain = 0
KME1 041538Z 20014KT 32/14 A3009 RMK A01 T03170141  RH  034%=      5-min Rain = 0
KME1 041539Z 19013KT 32/14 A3009 RMK A01 T03170142  RH  035%=      5-min Rain = 0
KME1 041540Z 20015KT 32/14 A3009 RMK A01 T03180142  RH  034%=      5-min Rain = 0
KME1 041541Z 19012G17KT 32/14 A3009 RMK A01 T03170141  RH  034%=      5-min Rain = 0
KME1 041542Z 19011KT 32/14 A3009 RMK A01 T03170141  RH  035%=      5-min Rain = 0
KME1 041543Z 20014KT 32/14 A3009 RMK A01 T03180143  RH  035%=      5-min Rain = 0
KME1 041544Z 21015KT 32/14 A3008 RMK A01 T03190143  RH  034%=      5-min Rain = 0
KME1 041545Z 19010KT 32/14 A3008 RMK A01 T03190144  RH  035%=      5-min Rain = 0
KME1 041546Z 19014G19KT 32/14 A3008 RMK A01 T03210142  RH  034%=      5-min Rain = 0
KME1 041547Z 19013KT 32/14 A3008 RMK A01 T03210140  RH  033%=      5-min Rain = 0
KME1 041548Z 19013KT 32/14 A3008 RMK A01 T03210140  RH  033%=      5-min Rain = 0
KME1 041549Z 18012G17KT 32/14 A3008 RMK A01 T03230141  RH  033%=      5-min Rain = 0
KME1 041550Z 19016KT 32/14 A3008 RMK A01 T03240136  RH  032%=      5-min Rain = 0
KME1 041551Z 20013G18KT 33/14 A3008 RMK A01 T03250136  RH  032%=      5-min Rain = 0
KME1 041552Z 20014KT 33/13 A3008 RMK A01 T03260131  RH  031%=      5-min Rain = 0
KME1 041553Z 20016KT 33/13 A3008 RMK A01 T03260133  RH  031%=      5-min Rain = 0
KME1 041554Z 20015KT 33/13 A3008 RMK A01 T03250131  RH  031%=      5-min Rain = 0
KME1 041555Z 20012KT 32/13 A3008 RMK A01 T03240133  RH  031%=      5-min Rain = 0
KME1 041556Z 20014KT 32/13 A3008 RMK A01 T03240132  RH  031%=      5-min Rain = 0
KME1 041557Z 21015KT 33/13 A3008 RMK A01 T03250132  RH  031%=      5-min Rain = 0
KME1 041558Z 21013KT 33/13 A3008 RMK A01 T03260131  RH  031%=      5-min Rain = 0
KME1 041559Z 20011KT 33/13 A3008 RMK A01 T03300133  RH  030%=      5-min Rain = 0
KME1 041600Z 20013G18KT 33/13 A3008 RMK A01 T03320133  RH  030%=      5-min Rain = 0
KME1 041601Z 19013KT 33/13 A3008 RMK A01 T03320134  RH  030%=      5-min Rain = 0
KME1 041602Z 18012KT 33/14 A3008 RMK A01 T03320135  RH  030%=      5-min Rain = 0
KME1 041603Z 17014KT 33/13 A3008 RMK A01 T03310132  RH  030%=      5-min Rain = 0
KME1 041604Z 18014KT 33/13 A3008 RMK A01 T03290132  RH  030%=      5-min Rain = 0
KME1 041605Z 18012KT 33/13 A3008 RMK A01 T03290133  RH  030%=      5-min Rain = 0
KME1 041606Z 19014KT 33/13 A3008 RMK A01 T03310132  RH  030%=      5-min Rain = 0
KME1 041607Z 20011KT 33/13 A3008 RMK A01 T03310131  RH  030%=      5-min Rain = 0
KME1 041608Z 20014KT 33/13 A3008 RMK A01 T03300131  RH  030%=      5-min Rain = 0
KME1 041609Z 20016KT 33/13 A3008 RMK A01 T03310130  RH  030%=      5-min Rain = 0
KME1 041610Z 19014G19KT 33/13 A3008 RMK A01 T03310129  RH  029%=      5-min Rain = 0
KME1 041611Z 18014G19KT 33/13 A3008 RMK A01 T03310130  RH  029%=      5-min Rain = 0
KME1 041612Z 19013KT 33/13 A3008 RMK A01 T03320130  RH  029%=      5-min Rain = 0
KME1 041613Z 20014G19KT 33/13 A3008 RMK A01 T03330128  RH  029%=      5-min Rain = 0
KME1 041614Z 20010KT 33/13 A3008 RMK A01 T03320125  RH  028%=      5-min Rain = 0
KME1 041615Z 21015G20KT 33/13 A3008 RMK A01 T03330126  RH  028%=      5-min Rain = 0
KME1 041616Z 21016G22KT 33/12 A3008 RMK A01 T03340123  RH  028%=      5-min Rain = 0
KME1 041617Z 20014KT 33/13 A3008 RMK A01 T03340125  RH  028%=      5-min Rain = 0
KME1 041618Z 20013G18KT 34/12 A3008 RMK A01 T03360123  RH  027%=      5-min Rain = 0
KME1 041619Z 21015KT 34/12 A3008 RMK A01 T03350121  RH  027%=      5-min Rain = 0
KME1 041620Z 22013KT 34/12 A3008 RMK A01 T03350123  RH  028%=      5-min Rain = 0
KME1 041621Z 21012KT 34/13 A3008 RMK A01 T03380126  RH  028%=      5-min Rain = 0
KME1 041622Z 21015KT 34/12 A3008 RMK A01 T03420124  RH  027%=      5-min Rain = 0
KME1 041623Z 21012G18KT 34/13 A3008 RMK A01 T03400125  RH  027%=      5-min Rain = 0
KME1 041624Z 20015G21KT 34/13 A3008 RMK A01 T03390125  RH  027%=      5-min Rain = 0
KME1 041625Z 19016KT 34/13 A3008 RMK A01 T03390125  RH  027%=      5-min Rain = 0
KME1 041626Z 18015KT 34/13 A3008 RMK A01 T03380126  RH  028%=      5-min Rain = 0
KME1 041627Z 18017KT 34/12 A3008 RMK A01 T03360123  RH  027%=      5-min Rain = 0
KME1 041628Z 19015KT 34/12 A3008 RMK A01 T03360123  RH  027%=      5-min Rain = 0
KME1 041629Z 20012G18KT 34/13 A3008 RMK A01 T03370127  RH  028%=      5-min Rain = 0
KME1 041630Z 19014G19KT 34/13 A3008 RMK A01 T03390125  RH  027%=      5-min Rain = 0
KME1 041631Z 21012KT 34/13 A3008 RMK A01 T03370127  RH  028%=      5-min Rain = 0
KME1 041632Z 20016KT 34/13 A3008 RMK A01 T03380126  RH  028%=      5-min Rain = 0
KME1 041633Z 21017KT 34/13 A3007 RMK A01 T03370126  RH  028%=      5-min Rain = 0
KME1 041634Z 20013G20KT 34/13 A3007 RMK A01 T03370127  RH  028%=      5-min Rain = 0
KME1 041635Z 21015KT 34/13 A3008 RMK A01 T03380126  RH  028%=      5-min Rain = 0
KME1 041636Z 21015KT 34/12 A3008 RMK A01 T03390124  RH  027%=      5-min Rain = 0
KME1 041637Z 19012KT 34/13 A3008 RMK A01 T03390126  RH  028%=      5-min Rain = 0
KME1 041638Z 19014KT 34/13 A3008 RMK A01 T03420128  RH  027%=      5-min Rain = 0
KME1 041639Z 18013G18KT 34/13 A3008 RMK A01 T03430126  RH  027%=      5-min Rain = 0
KME1 041640Z 18014KT 34/13 A3008 RMK A01 T03430127  RH  027%=      5-min Rain = 0
KME1 041641Z 18013KT 34/13 A3008 RMK A01 T03430126  RH  027%=      5-min Rain = 0
KME1 041642Z 17014KT 34/13 A3008 RMK A01 T03420127  RH  027%=      5-min Rain = 0
KME1 041643Z 18014KT 34/13 A3008 RMK A01 T03420128  RH  027%=      5-min Rain = 0
KME1 041644Z 19013KT 34/13 A3008 RMK A01 T03410128  RH  028%=      5-min Rain = 0
KME1 041645Z 19013KT 34/13 A3008 RMK A01 T03400128  RH  028%=      5-min Rain = 0
KME1 041646Z 20010KT 34/13 A3008 RMK A01 T03410126  RH  027%=      5-min Rain = 0
KME1 041647Z 20012KT 34/13 A3008 RMK A01 T03410127  RH  027%=      5-min Rain = 0
KME1 041648Z 19012KT 34/13 A3008 RMK A01 T03400128  RH  028%=      5-min Rain = 0
KME1 041649Z 18011KT 34/13 A3008 RMK A01 T03420129  RH  028%=      5-min Rain = 0
KME1 041650Z 16012KT 35/13 A3008 RMK A01 T03450131  RH  027%=      5-min Rain = 0
KME1 041651Z 18013KT 35/13 A3008 RMK A01 T03470130  RH  027%=      5-min Rain = 0
KME1 041652Z 18013KT 35/13 A3008 RMK A01 T03490131  RH  027%=      5-min Rain = 0
KME1 041653Z 18012KT 35/13 A3008 RMK A01 T03480132  RH  027%=      5-min Rain = 0
KME1 041654Z 20013KT 35/13 A3008 RMK A01 T03470131  RH  027%=      5-min Rain = 0
KME1 041655Z 17013KT 35/13 A3008 RMK A01 T03460131  RH  027%=      5-min Rain = 0
KME1 041656Z 17013KT 35/13 A3008 RMK A01 T03460128  RH  027%=      5-min Rain = 0
KME1 041657Z 18016KT 35/13 A3008 RMK A01 T03450129  RH  027%=      5-min Rain = 0
KME1 041658Z 17015KT 35/13 A3008 RMK A01 T03450128  RH  027%=      5-min Rain = 0
KME1 041659Z 18014KT 35/13 A3008 RMK A01 T03450128  RH  027%=      5-min Rain = 0
KME1 041700Z 18012KT 35/13 A3008 RMK A01 T03450129  RH  027%=      5-min Rain = 0
KME1 041701Z 19009G14KT 35/13 A3008 RMK A01 T03460129  RH  027%=      5-min Rain = 0
KME1 041702Z 18013KT 35/13 A3008 RMK A01 T03470128  RH  027%=      5-min Rain = 0
KME1 041703Z 18011KT 35/13 A3007 RMK A01 T03480130  RH  027%=      5-min Rain = 0
KME1 041704Z 17011KT 35/13 A3008 RMK A01 T03510131  RH  027%=      5-min Rain = 0
KME1 041705Z 19013G18KT 35/13 A3008 RMK A01 T03540131  RH  026%=      5-min Rain = 0
KME1 041706Z 19013G18KT 35/13 A3008 RMK A01 T03540127  RH  026%=      5-min Rain = 0
KME1 041707Z 18011KT 35/13 A3008 RMK A01 T03510127  RH  026%=      5-min Rain = 0
KME1 041708Z 19010KT 35/13 A3008 RMK A01 T03510127  RH  026%=      5-min Rain = 0
KME1 041709Z 19011KT 35/13 A3008 RMK A01 T03520128  RH  026%=      5-min Rain = 0
KME1 041710Z 19009KT 35/13 A3007 RMK A01 T03530129  RH  026%=      5-min Rain = 0
KME1 041711Z 17010KT 35/13 A3008 RMK A01 T03520130  RH  026%=      5-min Rain = 0
KME1 041712Z 20010KT 35/13 A3007 RMK A01 T03530130  RH  026%=      5-min Rain = 0
KME1 041713Z 20010KT 35/13 A3007 RMK A01 T03530129  RH  026%=      5-min Rain = 0
KME1 041714Z 19014G19KT 35/13 A3007 RMK A01 T03520130  RH  026%=      5-min Rain = 0
KME1 041715Z 19013KT 35/13 A3008 RMK A01 T03530127  RH  026%=      5-min Rain = 0
KME1 041716Z 19013KT 35/12 A3007 RMK A01 T03500124  RH  026%=      5-min Rain = 0
KME1 041717Z 19012KT 35/13 A3007 RMK A01 T03480127  RH  026%=      5-min Rain = 0
KME1 041718Z 19010KT 35/13 A3007 RMK A01 T03480127  RH  026%=      5-min Rain = 0
KME1 041719Z 18008KT 35/13 A3007 RMK A01 T03480129  RH  027%=      5-min Rain = 0
KME1 041720Z 17013KT 35/13 A3007 RMK A01 T03500128  RH  026%=      5-min Rain = 0
KME1 041721Z 17013KT 35/13 A3007 RMK A01 T03520127  RH  026%=      5-min Rain = 0
KME1 041722Z 16013KT 35/13 A3007 RMK A01 T03520128  RH  026%=      5-min Rain = 0
KME1 041723Z 17012KT 35/13 A3007 RMK A01 T03520127  RH  026%=      5-min Rain = 0
KME1 041724Z 17010KT 35/13 A3007 RMK A01 T03510127  RH  026%=      5-min Rain = 0
KME1 041725Z 16011KT 35/13 A3007 RMK A01 T03510127  RH  026%=      5-min Rain = 0
KME1 041726Z 17010KT 35/13 A3007 RMK A01 T03500128  RH  026%=      5-min Rain = 0
KME1 041727Z 17009KT 35/13 A3007 RMK A01 T03520129  RH  026%=      5-min Rain = 0
KME1 041728Z 18010G15KT 36/13 A3007 RMK A01 T03580132  RH  026%=      5-min Rain = 0
KME1 041729Z 17012KT 36/13 A3007 RMK A01 T03590130  RH  025%=      5-min Rain = 0
KME1 041730Z 15013KT 36/13 A3007 RMK A01 T03560130  RH  026%=      5-min Rain = 0
KME1 041731Z 16011G16KT 36/13 A3007 RMK A01 T03550130  RH  026%=      5-min Rain = 0
KME1 041732Z 15010KT 36/13 A3007 RMK A01 T03550127  RH  025%=      5-min Rain = 0
KME1 041733Z 16014KT 35/13 A3007 RMK A01 T03540128  RH  026%=      5-min Rain = 0
KME1 041734Z 15012KT 36/13 A3007 RMK A01 T03550128  RH  026%=      5-min Rain = 0
KME1 041735Z 16013KT 36/13 A3007 RMK A01 T03560128  RH  026%=      5-min Rain = 0
KME1 041736Z 16012KT 36/13 A3007 RMK A01 T03570130  RH  026%=      5-min Rain = 0
KME1 041737Z 17011KT 36/13 A3007 RMK A01 T03610131  RH  025%=      5-min Rain = 0
KME1 041738Z 15011KT 36/13 A3007 RMK A01 T03620129  RH  025%=      5-min Rain = 0
KME1 041739Z 17010G15KT 36/13 A3007 RMK A01 T03600130  RH  025%=      5-min Rain = 0
KME1 041740Z 18010KT 36/13 A3007 RMK A01 T03600132  RH  025%=      5-min Rain = 0
KME1 041741Z 18011KT 36/13 A3007 RMK A01 T03630132  RH  025%=      5-min Rain = 0
KME1 041742Z 21013KT 36/13 A3007 RMK A01 T03630132  RH  025%=      5-min Rain = 0
KME1 041743Z 21012KT 36/13 A3007 RMK A01 T03610129  RH  025%=      5-min Rain = 0
KME1 041744Z 20009KT 36/13 A3007 RMK A01 T03580129  RH  025%=      5-min Rain = 0
KME1 041745Z 18010KT 36/13 A3007 RMK A01 T03580130  RH  025%=      5-min Rain = 0
KME1 041746Z 20009KT 36/13 A3006 RMK A01 T03580128  RH  025%=      5-min Rain = 0
KME1 041747Z 19008KT 36/13 A3006 RMK A01 T03580130  RH  026%=      5-min Rain = 0
KME1 041748Z 19008KT 36/13 A3006 RMK A01 T03600131  RH  025%=      5-min Rain = 0
KME1 041749Z 18007KT 36/13 A3006 RMK A01 T03630130  RH  025%=      5-min Rain = 0
KME1 041750Z 19014KT 36/13 A3006 RMK A01 T03630130  RH  025%=      5-min Rain = 0
KME1 041751Z 18013KT 36/13 A3006 RMK A01 T03580128  RH  025%=      5-min Rain = 0
KME1 041752Z 17013KT 36/13 A3006 RMK A01 T03580128  RH  025%=      5-min Rain = 0
KME1 041753Z 17014KT 36/13 A3006 RMK A01 T03580128  RH  025%=      5-min Rain = 0
KME1 041754Z 16009KT 36/13 A3006 RMK A01 T03580127  RH  025%=      5-min Rain = 0
KME1 041755Z 16007KT 36/13 A3006 RMK A01 T03570127  RH  025%=      5-min Rain = 0
KME1 041756Z 15007KT 36/13 A3006 RMK A01 T03570127  RH  025%=      5-min Rain = 0
KME1 041757Z 17010G16KT 36/13 A3006 RMK A01 T03580129  RH  025%=      5-min Rain = 0
KME1 041758Z 19012KT 36/13 A3006 RMK A01 T03620129  RH  025%=      5-min Rain = 0
KME1 041759Z 19010KT 36/13 A3006 RMK A01 T03590126  RH  025%=      5-min Rain = 0
KME1 041800Z 18013G18KT 36/13 A3006 RMK A01 T03550127  RH  025%=      5-min Rain = 0
KME1 041801Z 18013KT 36/13 A3006 RMK A01 T03570126  RH  025%=      5-min Rain = 0
KME1 041802Z 19008KT 36/13 A3006 RMK A01 T03560125  RH  025%=      5-min Rain = 0
KME1 041803Z 20009KT 35/13 A3006 RMK A01 T03540126  RH  025%=      5-min Rain = 0
KME1 041804Z 19011KT 35/13 A3006 RMK A01 T03540126  RH  025%=      5-min Rain = 0
KME1 041805Z 18012KT 36/13 A3006 RMK A01 T03590130  RH  025%=      5-min Rain = 0
KME1 041806Z 18014KT 36/13 A3006 RMK A01 T03630128  RH  025%=      5-min Rain = 0
KME1 041807Z 18009KT 36/13 A3006 RMK A01 T03590128  RH  025%=      5-min Rain = 0
KME1 041808Z 19011KT 36/13 A3006 RMK A01 T03590129  RH  025%=      5-min Rain = 0
KME1 041809Z 18009KT 36/13 A3006 RMK A01 T03610127  RH  025%=      5-min Rain = 0
KME1 041810Z 18010KT 36/13 A3006 RMK A01 T03580125  RH  025%=      5-min Rain = 0
KME1 041811Z 19010KT 35/13 A3006 RMK A01 T03540125  RH  025%=      5-min Rain = 0
KME1 041812Z 18011KT 36/13 A3006 RMK A01 T03550127  RH  025%=      5-min Rain = 0
KME1 041813Z 17013KT 36/13 A3006 RMK A01 T03570129  RH  025%=      5-min Rain = 0
KME1 041814Z 17012KT 36/13 A3006 RMK A01 T03590128  RH  025%=      5-min Rain = 0
KME1 041815Z 19010KT 36/13 A3006 RMK A01 T03580129  RH  025%=      5-min Rain = 0
KME1 041816Z 18011KT 36/13 A3006 RMK A01 T03590130  RH  025%=      5-min Rain = 0
KME1 041817Z 21008KT 36/13 A3006 RMK A01 T03600129  RH  025%=      5-min Rain = 0
KME1 041818Z 18011G17KT 36/13 A3006 RMK A01 T03620129  RH  025%=      5-min Rain = 0
KME1 041819Z 21009KT 36/13 A3006 RMK A01 T03620129  RH  025%=      5-min Rain = 0
KME1 041820Z 21011KT 36/13 A3006 RMK A01 T03610129  RH  025%=      5-min Rain = 0
KME1 041821Z 20010KT 36/13 A3006 RMK A01 T03620128  RH  025%=      5-min Rain = 0
KME1 041822Z 21009G14KT 36/13 A3006 RMK A01 T03620129  RH  025%=      5-min Rain = 0
KME1 041823Z 20007G12KT 37/13 A3006 RMK A01 T03680133  RH  025%=      5-min Rain = 0
KME1 041824Z 20013KT 37/13 A3006 RMK A01 T03720130  RH  024%=      5-min Rain = 0
KME1 041825Z 19014KT 37/13 A3006 RMK A01 T03670127  RH  024%=      5-min Rain = 0
KME1 041826Z 18013KT 36/13 A3006 RMK A01 T03630128  RH  024%=      5-min Rain = 0
KME1 041827Z 19013KT 36/13 A3006 RMK A01 T03630126  RH  024%=      5-min Rain = 0
KME1 041828Z 19012KT 36/13 A3006 RMK A01 T03620126  RH  024%=      5-min Rain = 0
KME1 041829Z 18008KT 36/13 A3006 RMK A01 T03610125  RH  024%=      5-min Rain = 0
KME1 041830Z 17010KT 36/13 A3005 RMK A01 T03600126  RH  025%=      5-min Rain = 0
KME1 041831Z 19012KT 36/13 A3005 RMK A01 T03620126  RH  024%=      5-min Rain = 0
KME1 041832Z 20011KT 36/13 A3005 RMK A01 T03610125  RH  024%=      5-min Rain = 0
KME1 041833Z 18011KT 36/13 A3005 RMK A01 T03590127  RH  025%=      5-min Rain = 0
KME1 041834Z 16016KT 36/13 A3005 RMK A01 T03620128  RH  025%=      5-min Rain = 0
KME1 041835Z 16011KT 36/13 A3005 RMK A01 T03630128  RH  024%=      5-min Rain = 0
KME1 041836Z 16009KT 36/13 A3005 RMK A01 T03630129  RH  025%=      5-min Rain = 0
KME1 041837Z 14008KT 36/13 A3005 RMK A01 T03640128  RH  024%=      5-min Rain = 0
KME1 041838Z 15008KT 36/13 A3005 RMK A01 T03630128  RH  024%=      5-min Rain = 0
KME1 041839Z 17013KT 36/13 A3005 RMK A01 T03630129  RH  025%=      5-min Rain = 0
KME1 041840Z 16014KT 37/13 A3005 RMK A01 T03650129  RH  024%=      5-min Rain = 0
KME1 041841Z 16012KT 37/13 A3005 RMK A01 T03670128  RH  024%=      5-min Rain = 0
KME1 041842Z 17010KT 37/13 A3005 RMK A01 T03690129  RH  024%=      5-min Rain = 0
KME1 041843Z 18007KT 37/13 A3005 RMK A01 T03700126  RH  023%=      5-min Rain = 0
KME1 041844Z 18009G15KT 37/13 A3005 RMK A01 T03710127  RH  023%=      5-min Rain = 0
KME1 041845Z 18009KT 37/13 A3005 RMK A01 T03710126  RH  023%=      5-min Rain = 0
KME1 041846Z 18013G18KT 37/13 A3005 RMK A01 T03690128  RH  024%=      5-min Rain = 0
KME1 041847Z 19013KT 37/13 A3005 RMK A01 T03700126  RH  023%=      5-min Rain = 0
KME1 041848Z 17010KT 37/12 A3005 RMK A01 T03670124  RH  023%=      5-min Rain = 0
KME1 041849Z 18011KT 37/13 A3005 RMK A01 T03660126  RH  024%=      5-min Rain = 0
KME1 041850Z 18012KT 37/13 A3005 RMK A01 T03680129  RH  024%=      5-min Rain = 0
KME1 041851Z 18012KT 37/13 A3005 RMK A01 T03690125  RH  023%=      5-min Rain = 0
KME1 041852Z 18013KT 36/13 A3005 RMK A01 T03640125  RH  024%=      5-min Rain = 0
KME1 041853Z 17008KT 36/13 A3005 RMK A01 T03640127  RH  024%=      5-min Rain = 0
KME1 041854Z 17009KT 37/13 A3005 RMK A01 T03670126  RH  024%=      5-min Rain = 0
KME1 041855Z 16013KT 37/13 A3005 RMK A01 T03670126  RH  024%=      5-min Rain = 0
KME1 041856Z 17009KT 37/13 A3005 RMK A01 T03670125  RH  023%=      5-min Rain = 0
KME1 041857Z 15009KT 37/13 A3004 RMK A01 T03660126  RH  024%=      5-min Rain = 0
KME1 041858Z 17011KT 37/13 A3004 RMK A01 T03660126  RH  024%=      5-min Rain = 0
KME1 041859Z 20010KT 37/13 A3004 RMK A01 T03660128  RH  024%=      5-min Rain = 0
KME1 041900Z 21011G17KT 37/13 A3004 RMK A01 T03670126  RH  024%=      5-min Rain = 0
KME1 041901Z 18015KT 37/13 A3004 RMK A01 T03720130  RH  024%=      5-min Rain = 0
KME1 041902Z 17014KT 38/13 A3004 RMK A01 T03770127  RH  023%=      5-min Rain = 0
KME1 041903Z 17013KT 38/13 A3004 RMK A01 T03750126  RH  023%=      5-min Rain = 0
KME1 041904Z 17011KT 37/13 A3005 RMK A01 T03730126  RH  023%=      5-min Rain = 0
KME1 041905Z 18010KT 37/12 A3004 RMK A01 T03740124  RH  022%=      5-min Rain = 0
KME1 041906Z 18007KT 37/12 A3004 RMK A01 T03710121  RH  022%=      5-min Rain = 0
KME1 041907Z 16014KT 37/12 A3004 RMK A01 T03680124  RH  023%=      5-min Rain = 0
KME1 041908Z 16013KT 37/13 A3004 RMK A01 T03700125  RH  023%=      5-min Rain = 0
KME1 041909Z 16009KT 37/13 A3004 RMK A01 T03730127  RH  023%=      5-min Rain = 0
KME1 041910Z 16012KT 38/13 A3004 RMK A01 T03770128  RH  023%=      5-min Rain = 0
KME1 041911Z 15010KT 38/13 A3004 RMK A01 T03780127  RH  022%=      5-min Rain = 0
KME1 041912Z 14009KT 38/13 A3004 RMK A01 T03750125  RH  022%=      5-min Rain = 0
KME1 041913Z 16009KT 37/13 A3004 RMK A01 T03710125  RH  023%=      5-min Rain = 0
KME1 041914Z 18014KT 37/13 A3004 RMK A01 T03690125  RH  023%=      5-min Rain = 0
KME1 041915Z 18013KT 37/12 A3004 RMK A01 T03690124  RH  023%=      5-min Rain = 0
KME1 041916Z 17013KT 37/12 A3004 RMK A01 T03690121  RH  023%=      5-min Rain = 0
KME1 041917Z 16011KT 37/12 A3004 RMK A01 T03690122  RH  023%=      5-min Rain = 0
KME1 041918Z 16009KT 37/12 A3004 RMK A01 T03700120  RH  022%=      5-min Rain = 0
KME1 041919Z 16009KT 37/12 A3004 RMK A01 T03710120  RH  022%=      5-min Rain = 0
KME1 041920Z 15008KT 37/12 A3004 RMK A01 T03690121  RH  023%=      5-min Rain = 0
KME1 041921Z 16010KT 37/13 A3004 RMK A01 T03700125  RH  023%=      5-min Rain = 0
KME1 041922Z 16008KT 38/13 A3004 RMK A01 T03750126  RH  023%=      5-min Rain = 0
KME1 041923Z 16008KT 38/13 A3004 RMK A01 T03770126  RH  022%=      5-min Rain = 0
KME1 041924Z 18010KT 38/13 A3004 RMK A01 T03750126  RH  022%=      5-min Rain = 0
KME1 041925Z 19011G16KT 37/12 A3004 RMK A01 T03730124  RH  023%=      5-min Rain = 0
KME1 041926Z 16011KT 37/13 A3004 RMK A01 T03700126  RH  023%=      5-min Rain = 0
KME1 041927Z 16014KT 37/12 A3004 RMK A01 T03710123  RH  023%=      5-min Rain = 0
KME1 041928Z 16012KT 37/12 A3004 RMK A01 T03720121  RH  022%=      5-min Rain = 0
KME1 041929Z 18010KT 37/12 A3004 RMK A01 T03720120  RH  022%=      5-min Rain = 0
KME1 041930Z 17009KT 37/12 A3004 RMK A01 T03710121  RH  022%=      5-min Rain = 0
KME1 041931Z 19012KT 37/12 A3004 RMK A01 T03730121  RH  022%=      5-min Rain = 0
KME1 041932Z 18010KT 37/12 A3004 RMK A01 T03720121  RH  022%=      5-min Rain = 0
KME1 041933Z 18008KT 37/12 A3004 RMK A01 T03710123  RH  023%=      5-min Rain = 0
KME1 041934Z 18012KT 38/13 A3004 RMK A01 T03760126  RH  022%=      5-min Rain = 0
KME1 041935Z 17009KT 38/13 A3004 RMK A01 T03780125  RH  022%=      5-min Rain = 0
KME1 041936Z 17006KT 38/12 A3003 RMK A01 T03750123  RH  022%=      5-min Rain = 0
KME1 041937Z 22010KT 37/13 A3003 RMK A01 T03730125  RH  023%=      5-min Rain = 0
KME1 041938Z 20011KT 37/12 A3003 RMK A01 T03740123  RH  022%=      5-min Rain = 0
KME1 041939Z 20011KT 38/12 A3003 RMK A01 T03760122  RH  022%=      5-min Rain = 0
KME1 041940Z 20010KT 38/12 A3003 RMK A01 T03760122  RH  022%=      5-min Rain = 0
KME1 041941Z 21009KT 37/12 A3003 RMK A01 T03740122  RH  022%=      5-min Rain = 0
KME1 041942Z 21009KT 38/12 A3003 RMK A01 T03760123  RH  022%=      5-min Rain = 0
KME1 041943Z 21012KT 38/12 A3003 RMK A01 T03800124  RH  022%=      5-min Rain = 0
KME1 041944Z 21009KT 38/12 A3003 RMK A01 T03810123  RH  022%=      5-min Rain = 0
KME1 041945Z 18008KT 38/12 A3003 RMK A01 T03780122  RH  022%=      5-min Rain = 0
KME1 041946Z 18009G14KT 38/12 A3003 RMK A01 T03760123  RH  022%=      5-min Rain = 0
KME1 041947Z 16012KT 38/12 A3003 RMK A01 T03790124  RH  022%=      5-min Rain = 0
KME1 041948Z 16014KT 38/12 A3003 RMK A01 T03820121  RH  021%=      5-min Rain = 0
KME1 041949Z 16013KT 38/12 A3003 RMK A01 T03820121  RH  021%=      5-min Rain = 0
KME1 041950Z 17013KT 38/12 A3003 RMK A01 T03820120  RH  021%=      5-min Rain = 0
KME1 041951Z 17012KT 38/12 A3003 RMK A01 T03820120  RH  021%=      5-min Rain = 0
KME1 041952Z 17013KT 38/12 A3003 RMK A01 T03830118  RH  020%=      5-min Rain = 0
KME1 041953Z 15010KT 38/12 A3003 RMK A01 T03820118  RH  021%=      5-min Rain = 0
KME1 041954Z 15010KT 38/12 A3003 RMK A01 T03810118  RH  021%=      5-min Rain = 0
KME1 041955Z 16010KT 38/12 A3003 RMK A01 T03820116  RH  020%=      5-min Rain = 0
KME1 041956Z 16006KT 38/12 A3003 RMK A01 T03820116  RH  020%=      5-min Rain = 0
KME1 041957Z 19010KT 38/12 A3003 RMK A01 T03840116  RH  020%=      5-min Rain = 0
KME1 041958Z 15007KT 38/12 A3002 RMK A01 T03800116  RH  021%=      5-min Rain = 0
KME1 041959Z 15010KT 38/12 A3002 RMK A01 T03770117  RH  021%=      5-min Rain = 0
KME1 042000Z 16010KT 37/12 A3002 RMK A01 T03740116  RH  021%=      5-min Rain = 0
KME1 042001Z 19015G22KT 38/12 A3002 RMK A01 T03760119  RH  021%=      5-min Rain = 0
KME1 042002Z 21010G15KT 38/12 A3002 RMK A01 T03780118  RH  021%=      5-min Rain = 0
KME1 042003Z 21012KT 38/12 A3002 RMK A01 T03810120  RH  021%=      5-min Rain = 0
KME1 042004Z 23012KT 38/12 A3002 RMK A01 T03810118  RH  021%=      5-min Rain = 0
KME1 042005Z 22008KT 38/12 A3002 RMK A01 T03790117  RH  021%=      5-min Rain = 0
KME1 042006Z 21007KT 38/12 A3002 RMK A01 T03790119  RH  021%=      5-min Rain = 0
KME1 042007Z 21008KT 39/12 A3002 RMK A01 T03850120  RH  021%=      5-min Rain = 0
KME1 042008Z 19009KT 39/12 A3002 RMK A01 T03870115  RH  020%=      5-min Rain = 0
KME1 042009Z 17007KT 38/11 A3002 RMK A01 T03810113  RH  020%=      5-min Rain = 0
KME1 042010Z 16007G13KT 38/12 A3002 RMK A01 T03790117  RH  021%=      5-min Rain = 0
KME1 042011Z 18014KT 38/12 A3002 RMK A01 T03800117  RH  021%=      5-min Rain = 0
KME1 042012Z 18013KT 38/12 A3002 RMK A01 T03800118  RH  021%=      5-min Rain = 0
KME1 042013Z 17013KT 38/12 A3002 RMK A01 T03810117  RH  021%=      5-min Rain = 0
KME1 042014Z 16013KT 38/12 A3002 RMK A01 T03840118  RH  020%=      5-min Rain = 0
KME1 042015Z 18013KT 38/12 A3002 RMK A01 T03830118  RH  020%=      5-min Rain = 0
KME1 042016Z 16012KT 38/12 A3002 RMK A01 T03830118  RH  020%=      5-min Rain = 0
KME1 042017Z 16011KT 38/12 A3002 RMK A01 T03830115  RH  020%=      5-min Rain = 0
KME1 042018Z 16010KT 38/11 A3002 RMK A01 T03820114  RH  020%=      5-min Rain = 0
KME1 042019Z 17010KT 38/11 A3002 RMK A01 T03800114  RH  020%=      5-min Rain = 0
KME1 042020Z 17010KT 38/11 A3002 RMK A01 T03810114  RH  020%=      5-min Rain = 0
KME1 042021Z 17008KT 38/11 A3002 RMK A01 T03810112  RH  020%=      5-min Rain = 0
KME1 042022Z 15005KT 38/11 A3002 RMK A01 T03780114  RH  021%=      5-min Rain = 0
KME1 042023Z 20005KT 38/11 A3002 RMK A01 T03780111  RH  020%=      5-min Rain = 0
KME1 042024Z 20005KT 37/11 A3002 RMK A01 T03730111  RH  021%=      5-min Rain = 0
KME1 042025Z 18010KT 37/11 A3002 RMK A01 T03710113  RH  021%=      5-min Rain = 0
KME1 042026Z 18009KT 37/11 A3002 RMK A01 T03740111  RH  021%=      5-min Rain = 0
KME1 042027Z 19007KT 38/11 A3002 RMK A01 T03750111  RH  020%=      5-min Rain = 0
KME1 042028Z 19014KT 38/11 A3002 RMK A01 T03770113  RH  021%=      5-min Rain = 0
KME1 042029Z 18011KT 38/11 A3002 RMK A01 T03780112  RH  020%=      5-min Rain = 0
KME1 042030Z 17008KT 37/11 A3002 RMK A01 T03740112  RH  021%=      5-min Rain = 0
KME1 042031Z 15006KT 37/11 A3002 RMK A01 T03730111  RH  021%=      5-min Rain = 0
KME1 042032Z 16013G18KT 37/11 A3001 RMK A01 T03720111  RH  021%=      5-min Rain = 0
KME1 042033Z 18012KT 38/11 A3002 RMK A01 T03750108  RH  020%=      5-min Rain = 0
KME1 042034Z 20011KT 38/11 A3002 RMK A01 T03770107  RH  020%=      5-min Rain = 0
KME1 042035Z 18009KT 38/11 A3002 RMK A01 T03790107  RH  020%=      5-min Rain = 0
KME1 042036Z 18008KT 38/11 A3002 RMK A01 T03800105  RH  019%=      5-min Rain = 0
KME1 042037Z 19004G9KT 38/11 A3001 RMK A01 T03820107  RH  019%=      5-min Rain = 0
KME1 042038Z 12001KT 38/11 A3001 RMK A01 T03820107  RH  019%=      5-min Rain = 0
KME1 042039Z 16002KT 38/11 A3001 RMK A01 T03810108  RH  019%=      5-min Rain = 0
KME1 042040Z 22003KT 38/11 A3001 RMK A01 T03810106  RH  019%=      5-min Rain = 0
KME1 042041Z 20005KT 38/11 A3001 RMK A01 T03820106  RH  019%=      5-min Rain = 0
KME1 042042Z 17010G17KT 38/11 A3001 RMK A01 T03830109  RH  019%=      5-min Rain = 0
KME1 042043Z 17014KT 38/11 A3001 RMK A01 T03820111  RH  020%=      5-min Rain = 0
KME1 042044Z 18011KT 38/11 A3001 RMK A01 T03810110  RH  020%=      5-min Rain = 0
KME1 042045Z 20010KT 38/11 A3001 RMK A01 T03800105  RH  019%=      5-min Rain = 0
KME1 042046Z 19009KT 38/11 A3001 RMK A01 T03780106  RH  019%=      5-min Rain = 0
KME1 042047Z 17013KT 38/11 A3001 RMK A01 T03800109  RH  020%=      5-min Rain = 0
KME1 042048Z 18010KT 38/11 A3001 RMK A01 T03820109  RH  019%=      5-min Rain = 0
KME1 042049Z 18011KT 38/11 A3001 RMK A01 T03830109  RH  019%=      5-min Rain = 0
KME1 042050Z 17013G18KT 38/11 A3001 RMK A01 T03830110  RH  019%=      5-min Rain = 0
KME1 042051Z 16013KT 38/11 A3001 RMK A01 T03840109  RH  019%=      5-min Rain = 0
KME1 042052Z 17010KT 39/11 A3001 RMK A01 T03850109  RH  019%=      5-min Rain = 0
KME1 042053Z 16009KT 39/11 A3001 RMK A01 T03880107  RH  019%=      5-min Rain = 0
KME1 042054Z 15009KT 39/11 A30 RMK A01 T03870109  RH  019%=      5-min Rain = 0
KME1 042055Z 14011G16KT 39/11 A30 RMK A01 T03870108  RH  019%=      5-min Rain = 0
KME1 042056Z 15010G17KT 38/11 A30 RMK A01 T03840108  RH  019%=      5-min Rain = 0
KME1 042057Z 17015KT 38/11 A3001 RMK A01 T03820108  RH  019%=      5-min Rain = 0
KME1 042058Z 19009KT 38/11 A3001 RMK A01 T03800108  RH  020%=      5-min Rain = 0
KME1 042059Z 18015KT 38/11 A3001 RMK A01 T03790110  RH  020%=      5-min Rain = 0
KME1 042100Z 18012KT 38/11 A3001 RMK A01 T03810108  RH  019%=      5-min Rain = 0
KME1 042101Z 17011KT 38/11 A3001 RMK A01 T03810108  RH  019%=      5-min Rain = 0
KME1 042102Z 18011KT 38/11 A3001 RMK A01 T03820106  RH  019%=      5-min Rain = 0
KME1 042103Z 17007KT 38/11 A3001 RMK A01 T03820105  RH  019%=      5-min Rain = 0
KME1 042104Z 16011KT 38/11 A30 RMK A01 T03820107  RH  019%=      5-min Rain = 0
KME1 042105Z 15011KT 39/11 A30 RMK A01 T03850106  RH  019%=      5-min Rain = 0
KME1 042106Z 15010KT 39/10 A30 RMK A01 T03850104  RH  018%=      5-min Rain = 0
KME1 042107Z 17006KT 38/10 A30 RMK A01 T03840104  RH  019%=      5-min Rain = 0
KME1 042108Z 19006KT 39/10 A30 RMK A01 T03850102  RH  018%=      5-min Rain = 0
KME1 042109Z 18005KT 38/10 A30 RMK A01 T03840102  RH  018%=      5-min Rain = 0
KME1 042110Z 18005KT 39/10 A30 RMK A01 T03850100  RH  018%=      5-min Rain = 0
KME1 042111Z 20007KT 39/10 A30 RMK A01 T03870098  RH  018%=      5-min Rain = 0
KME1 042112Z 19006KT 39/10 A30 RMK A01 T03850099  RH  018%=      5-min Rain = 0
KME1 042113Z 16004KT 38/10 A30 RMK A01 T03840104  RH  019%=      5-min Rain = 0
KME1 042114Z 18005G10KT 38/10 A30 RMK A01 T03840104  RH  019%=      5-min Rain = 0
KME1 042115Z 18010KT 38/11 A30 RMK A01 T03840105  RH  019%=      5-min Rain = 0
KME1 042116Z 20012KT 38/11 A30 RMK A01 T03840109  RH  019%=      5-min Rain = 0
KME1 042117Z 21014KT 38/11 A30 RMK A01 T03830109  RH  019%=      5-min Rain = 0
KME1 042118Z 20011KT 38/11 A30 RMK A01 T03830109  RH  019%=      5-min Rain = 0
KME1 042119Z 19009KT 38/11 A30 RMK A01 T03830109  RH  019%=      5-min Rain = 0
KME1 042120Z 19007KT 38/11 A30 RMK A01 T03840109  RH  019%=      5-min Rain = 0
KME1 042121Z 21008G13KT 39/11 A30 RMK A01 T03850110  RH  019%=      5-min Rain = 0
KME1 042122Z 20007KT 39/11 A30 RMK A01 T03860107  RH  019%=      5-min Rain = 0
KME1 042123Z 20004KT 39/11 A30 RMK A01 T03860107  RH  019%=      5-min Rain = 0
KME1 042124Z 23005KT 39/11 A30 RMK A01 T03880107  RH  019%=      5-min Rain = 0
KME1 042125Z 18005KT 39/11 A30 RMK A01 T03880106  RH  018%=      5-min Rain = 0
KME1 042126Z 18004KT 39/10 A30 RMK A01 T03870104  RH  018%=      5-min Rain = 0
KME1 042127Z 19007KT 38/11 A30 RMK A01 T03830106  RH  019%=      5-min Rain = 0
KME1 042128Z 18009KT 38/11 A2999 RMK A01 T03840107  RH  019%=      5-min Rain = 0
KME1 042129Z 19008KT 39/11 A2999 RMK A01 T03860106  RH  019%=      5-min Rain = 0
KME1 042130Z 21006KT 39/10 A2999 RMK A01 T03850104  RH  019%=      5-min Rain = 0
KME1 042131Z 19006KT 38/11 A2999 RMK A01 T03840105  RH  019%=      5-min Rain = 0
KME1 042132Z 19006KT 39/10 A2999 RMK A01 T03850104  RH  019%=      5-min Rain = 0
KME1 042133Z 15006KT 39/10 A2999 RMK A01 T03860103  RH  018%=      5-min Rain = 0
KME1 042134Z 18003KT 38/10 A2999 RMK A01 T03840102  RH  018%=      5-min Rain = 0
KME1 042135Z 16004KT 38/10 A2999 RMK A01 T03830103  RH  019%=      5-min Rain = 0
KME1 042136Z 13006KT 38/11 A2999 RMK A01 T03830105  RH  019%=      5-min Rain = 0
KME1 042137Z 17006KT 39/11 A2999 RMK A01 T03850110  RH  019%=      5-min Rain = 0
KME1 042138Z 16007G13KT 39/11 A2999 RMK A01 T03870106  RH  019%=      5-min Rain = 0
KME1 042139Z 23008G13KT 39/11 A2999 RMK A01 T03890106  RH  018%=      5-min Rain = 0
KME1 042140Z 25004KT 39/11 A2999 RMK A01 T03900105  RH  018%=      5-min Rain = 0
KME1 042141Z 19004KT 39/11 A2999 RMK A01 T03890106  RH  018%=      5-min Rain = 0
KME1 042142Z 19010KT 39/11 A2999 RMK A01 T03900105  RH  018%=      5-min Rain = 0
KME1 042143Z 20012KT 39/10 A2999 RMK A01 T03870102  RH  018%=      5-min Rain = 0
KME1 042144Z 19010KT 39/10 A2999 RMK A01 T03860103  RH  018%=      5-min Rain = 0
KME1 042145Z 18008KT 39/11 A2999 RMK A01 T03870106  RH  019%=      5-min Rain = 0
KME1 042146Z 20009KT 39/11 A2999 RMK A01 T03870106  RH  019%=      5-min Rain = 0
KME1 042147Z 21012KT 39/10 A2999 RMK A01 T03870104  RH  018%=      5-min Rain = 0
KME1 042148Z 19008KT 39/11 A2999 RMK A01 T03870105  RH  018%=      5-min Rain = 0
KME1 042149Z 19010KT 39/11 A2999 RMK A01 T03890107  RH  019%=      5-min Rain = 0
KME1 042150Z 20012KT 39/11 A2999 RMK A01 T03890105  RH  018%=      5-min Rain = 0
KME1 042151Z 17011KT 39/11 A2999 RMK A01 T03860105  RH  019%=      5-min Rain = 0
KME1 042152Z 16008KT 39/10 A2999 RMK A01 T03860104  RH  018%=      5-min Rain = 0
KME1 042153Z 14005KT 38/10 A2999 RMK A01 T03840102  RH  018%=      5-min Rain = 0
KME1 042154Z 12005KT 38/10 A2999 RMK A01 T03810103  RH  019%=      5-min Rain = 0
KME1 042155Z 13005KT 38/10 A2999 RMK A01 T03800102  RH  019%=      5-min Rain = 0
KME1 042156Z 16006G11KT 38/10 A2999 RMK A01 T03800102  RH  019%=      5-min Rain = 0
KME1 042157Z 17007KT 38/11 A2999 RMK A01 T03820105  RH  019%=      5-min Rain = 0
KME1 042158Z 18008KT 39/11 A2999 RMK A01 T03870107  RH  019%=      5-min Rain = 0
KME1 042159Z 17009KT 39/11 A2999 RMK A01 T03890108  RH  019%=      5-min Rain = 0
KME1 042200Z 18008KT 39/11 A2999 RMK A01 T03920107  RH  018%=      5-min Rain = 0
KME1 042201Z 20009KT 39/11 A2999 RMK A01 T03920105  RH  018%=      5-min Rain = 0
KME1 042202Z 18010KT 39/11 A2999 RMK A01 T03890106  RH  018%=      5-min Rain = 0
KME1 042203Z 16012KT 39/10 A2999 RMK A01 T03880104  RH  018%=      5-min Rain = 0
KME1 042204Z 16010G15KT 39/10 A2999 RMK A01 T03850102  RH  018%=      5-min Rain = 0
KME1 042205Z 16007KT 38/10 A2999 RMK A01 T03840102  RH  018%=      5-min Rain = 0
KME1 042206Z 17010KT 38/10 A2999 RMK A01 T03830101  RH  018%=      5-min Rain = 0
KME1 042207Z 18010KT 38/10 A2999 RMK A01 T03830104  RH  019%=      5-min Rain = 0
KME1 042208Z 17005KT 39/10 A2999 RMK A01 T03850100  RH  018%=      5-min Rain = 0
KME1 042209Z 17005KT 38/10 A2999 RMK A01 T03800099  RH  018%=      5-min Rain = 0
KME1 042210Z 16005KT 38/10 A2999 RMK A01 T03780099  RH  019%=      5-min Rain = 0
KME1 042211Z 17008KT 38/10 A2999 RMK A01 T03800101  RH  019%=      5-min Rain = 0
KME1 042212Z 17009KT 38/10 A2999 RMK A01 T03830100  RH  018%=      5-min Rain = 0
KME1 042213Z 14003KT 38/10 A2999 RMK A01 T03820098  RH  018%=      5-min Rain = 0
KME1 042214Z 11004KT 38/10 A2999 RMK A01 T03800099  RH  018%=      5-min Rain = 0
KME1 042215Z 11004KT 38/10 A2999 RMK A01 T03790100  RH  019%=      5-min Rain = 0
KME1 042216Z 13006KT 38/10 A2999 RMK A01 T03790098  RH  018%=      5-min Rain = 0
KME1 042217Z 13003KT 38/10 A2999 RMK A01 T03800098  RH  018%=      5-min Rain = 0
KME1 042218Z 13003KT 38/10 A2999 RMK A01 T03800099  RH  018%=      5-min Rain = 0
KME1 042219Z 17008KT 38/10 A2999 RMK A01 T03820101  RH  018%=      5-min Rain = 0
KME1 042220Z 18007KT 39/10 A2999 RMK A01 T03850101  RH  018%=      5-min Rain = 0
KME1 042221Z 19008G13KT 39/10 A2998 RMK A01 T03860103  RH  018%=      5-min Rain = 0
KME1 042222Z 18014KT 39/10 A2999 RMK A01 T03860103  RH  018%=      5-min Rain = 0
KME1 042223Z 20010KT 39/10 A2999 RMK A01 T03850101  RH  018%=      5-min Rain = 0
KME1 042224Z 20006KT 38/10 A2999 RMK A01 T03830100  RH  018%=      5-min Rain = 0
KME1 042225Z 19005KT 38/10 A2999 RMK A01 T03800099  RH  018%=      5-min Rain = 0
KME1 042226Z 20005KT 38/10 A2999 RMK A01 T03780099  RH  019%=      5-min Rain = 0
KME1 042227Z 21008KT 38/10 A2999 RMK A01 T03780100  RH  019%=      5-min Rain = 0
KME1 042228Z 21008KT 38/10 A2999 RMK A01 T03810100  RH  018%=      5-min Rain = 0
KME1 042229Z 22005KT 38/10 A2999 RMK A01 T03810099  RH  018%=      5-min Rain = 0
KME1 042230Z 25004KT 38/10 A2998 RMK A01 T03810100  RH  018%=      5-min Rain = 0
KME1 042231Z 21004KT 38/10 A2998 RMK A01 T03800100  RH  019%=      5-min Rain = 0
KME1 042232Z 18006KT 38/10 A2998 RMK A01 T03810100  RH  018%=      5-min Rain = 0
KME1 042233Z 19010KT 38/10 A2998 RMK A01 T03820100  RH  018%=      5-min Rain = 0
KME1 042234Z 19008KT 38/10 A2998 RMK A01 T03830100  RH  018%=      5-min Rain = 0
KME1 042235Z 21006KT 38/10 A2998 RMK A01 T03830097  RH  018%=      5-min Rain = 0
KME1 042236Z 25007KT 38/10 A2998 RMK A01 T03820098  RH  018%=      5-min Rain = 0
KME1 042237Z 25007KT 38/10 A2998 RMK A01 T03820100  RH  018%=      5-min Rain = 0
KME1 042238Z 17007G14KT 38/10 A2998 RMK A01 T03830102  RH  018%=      5-min Rain = 0
KME1 042239Z 19012KT 39/10 A2998 RMK A01 T03870102  RH  018%=      5-min Rain = 0
KME1 042240Z 21007KT 39/10 A2998 RMK A01 T03850100  RH  018%=      5-min Rain = 0
KME1 042241Z 19006KT 38/10 A2998 RMK A01 T03810101  RH  019%=      5-min Rain = 0
KME1 042242Z 19007KT 38/10 A2998 RMK A01 T03800103  RH  019%=      5-min Rain = 0
KME1 042243Z 15008G13KT 38/10 A2998 RMK A01 T03820103  RH  019%=      5-min Rain = 0
KME1 042244Z 13009KT 38/10 A2998 RMK A01 T03830104  RH  019%=      5-min Rain = 0
KME1 042245Z 16008KT 38/11 A2998 RMK A01 T03830106  RH  019%=      5-min Rain = 0
KME1 042246Z 18010KT 38/11 A2998 RMK A01 T03840105  RH  019%=      5-min Rain = 0
KME1 042247Z 15011KT 39/11 A2998 RMK A01 T03850105  RH  019%=      5-min Rain = 0
KME1 042248Z 17008KT 38/11 A2998 RMK A01 T03840105  RH  019%=      5-min Rain = 0
KME1 042249Z 18010KT 39/11 A2998 RMK A01 T03850105  RH  019%=      5-min Rain = 0
KME1 042250Z 18011KT 38/10 A2998 RMK A01 T03840104  RH  019%=      5-min Rain = 0
KME1 042251Z 17010KT 38/10 A2998 RMK A01 T03810104  RH  019%=      5-min Rain = 0
KME1 042252Z 18010KT 38/11 A2998 RMK A01 T03810105  RH  019%=      5-min Rain = 0
KME1 042253Z 16004KT 38/11 A2998 RMK A01 T03830106  RH  019%=      5-min Rain = 0
KME1 042254Z 15005KT 39/11 A2998 RMK A01 T03860107  RH  019%=      5-min Rain = 0
KME1 042255Z 16010G15KT 39/11 A2997 RMK A01 T03870106  RH  019%=      5-min Rain = 0
KME1 042256Z 18013KT 39/11 A2997 RMK A01 T03850105  RH  019%=      5-min Rain = 0
KME1 042257Z 18011KT 38/11 A2997 RMK A01 T03830105  RH  019%=      5-min Rain = 0
KME1 042258Z 16010KT 38/11 A2998 RMK A01 T03820106  RH  019%=      5-min Rain = 0
KME1 042259Z 15011KT 38/11 A2998 RMK A01 T03830107  RH  019%=      5-min Rain = 0
KME1 042300Z 15009KT 38/11 A2998 RMK A01 T03840106  RH  019%=      5-min Rain = 0
KME1 042301Z 15009KT 38/11 A2998 RMK A01 T03820107  RH  019%=      5-min Rain = 0
KME1 042302Z 15009KT 38/11 A2998 RMK A01 T03820105  RH  019%=      5-min Rain = 0
KME1 042303Z 16011G16KT 38/11 A2997 RMK A01 T03810105  RH  019%=      5-min Rain = 0
KME1 042304Z 16012KT 38/11 A2997 RMK A01 T03810106  RH  019%=      5-min Rain = 0
KME1 042305Z 16010KT 38/11 A2997 RMK A01 T03800105  RH  019%=      5-min Rain = 0
KME1 042306Z 17008KT 38/10 A2997 RMK A01 T03800104  RH  019%=      5-min Rain = 0
KME1 042307Z 18008KT 38/11 A2997 RMK A01 T03800105  RH  019%=      5-min Rain = 0
KME1 042308Z 19010KT 38/11 A2997 RMK A01 T03800106  RH  019%=      5-min Rain = 0
KME1 042309Z 19010KT 38/11 A2997 RMK A01 T03800105  RH  019%=      5-min Rain = 0
KME1 042310Z 18009KT 38/11 A2997 RMK A01 T03810105  RH  019%=      5-min Rain = 0
KME1 042311Z 19009KT 38/11 A2997 RMK A01 T03800106  RH  019%=      5-min Rain = 0
KME1 042312Z 20008KT 38/11 A2997 RMK A01 T03810107  RH  019%=      5-min Rain = 0
KME1 042313Z 20008KT 38/11 A2997 RMK A01 T03810107  RH  019%=      5-min Rain = 0
KME1 042314Z 22010KT 38/11 A2997 RMK A01 T03820108  RH  019%=      5-min Rain = 0
KME1 042315Z 22009KT 38/11 A2997 RMK A01 T03830108  RH  019%=      5-min Rain = 0
KME1 042316Z 22009KT 38/11 A2997 RMK A01 T03840106  RH  019%=      5-min Rain = 0
KME1 042317Z 18008KT 38/11 A2997 RMK A01 T03830106  RH  019%=      5-min Rain = 0
KME1 042318Z 16008KT 38/11 A2997 RMK A01 T03810106  RH  019%=      5-min Rain = 0
KME1 042319Z 16009G15KT 38/11 A2997 RMK A01 T03800107  RH  019%=      5-min Rain = 0
KME1 042320Z 14013KT 38/11 A2997 RMK A01 T03800106  RH  019%=      5-min Rain = 0
KME1 042321Z 14011KT 38/11 A2997 RMK A01 T03790105  RH  019%=      5-min Rain = 0
KME1 042322Z 14010KT 38/11 A2997 RMK A01 T03780105  RH  019%=      5-min Rain = 0
KME1 042323Z 13012KT 38/10 A2997 RMK A01 T03760103  RH  019%=      5-min Rain = 0
KME1 042324Z 15012KT 38/10 A2997 RMK A01 T03750104  RH  020%=      5-min Rain = 0
KME1 042325Z 16013KT 38/10 A2997 RMK A01 T03750104  RH  020%=      5-min Rain = 0
KME1 042326Z 16013KT 38/11 A2997 RMK A01 T03750105  RH  020%=      5-min Rain = 0
KME1 042327Z 18010KT 38/11 A2997 RMK A01 T03770106  RH  020%=      5-min Rain = 0
KME1 042328Z 17012KT 38/11 A2997 RMK A01 T03780105  RH  019%=      5-min Rain = 0
KME1 042329Z 17010KT 38/10 A2997 RMK A01 T03770104  RH  019%=      5-min Rain = 0
KME1 042330Z 15007KT 38/10 A2997 RMK A01 T03760104  RH  019%=      5-min Rain = 0
KME1 042331Z 18007KT 38/11 A2997 RMK A01 T03760105  RH  020%=      5-min Rain = 0
KME1 042332Z 16010KT 38/11 A2997 RMK A01 T03770105  RH  019%=      5-min Rain = 0
KME1 042333Z 14008KT 38/10 A2997 RMK A01 T03770104  RH  019%=      5-min Rain = 0
KME1 042334Z 15006KT 38/10 A2997 RMK A01 T03770104  RH  019%=      5-min Rain = 0
KME1 042335Z 15009KT 38/11 A2997 RMK A01 T03770105  RH  020%=      5-min Rain = 0
KME1 042336Z 17012KT 38/11 A2997 RMK A01 T03770108  RH  020%=      5-min Rain = 0
KME1 042337Z 17013KT 38/11 A2997 RMK A01 T03770107  RH  020%=      5-min Rain = 0
KME1 042338Z 16014KT 38/11 A2997 RMK A01 T03750107  RH  020%=      5-min Rain = 0
KME1 042339Z 18012KT 38/11 A2997 RMK A01 T03750108  RH  020%=      5-min Rain = 0
KME1 042340Z 17010KT 38/11 A2997 RMK A01 T03750108  RH  020%=      5-min Rain = 0
KME1 042341Z 16009KT 38/11 A2997 RMK A01 T03750107  RH  020%=      5-min Rain = 0
KME1 042342Z 16008KT 38/11 A2997 RMK A01 T03750107  RH  020%=      5-min Rain = 0
KME1 042343Z 17008KT 38/11 A2997 RMK A01 T03750108  RH  020%=      5-min Rain = 0
KME1 042344Z 17009KT 37/11 A2997 RMK A01 T03740108  RH  020%=      5-min Rain = 0
KME1 042345Z 17012G17KT 37/11 A2997 RMK A01 T03740108  RH  020%=      5-min Rain = 0
KME1 042346Z 17008KT 37/11 A2997 RMK A01 T03740109  RH  020%=      5-min Rain = 0
KME1 042347Z 15009KT 37/11 A2997 RMK A01 T03740110  RH  020%=      5-min Rain = 0
KME1 042348Z 15011KT 37/11 A2997 RMK A01 T03740108  RH  020%=      5-min Rain = 0
KME1 042349Z 16010KT 37/11 A2996 RMK A01 T03740109  RH  020%=      5-min Rain = 0
KME1 042350Z 18011KT 37/11 A2997 RMK A01 T03740110  RH  021%=      5-min Rain = 0
KME1 042351Z 17011KT 37/11 A2997 RMK A01 T03740111  RH  021%=      5-min Rain = 0
KME1 042352Z 18010KT 38/11 A2997 RMK A01 T03750111  RH  021%=      5-min Rain = 0
KME1 042353Z 18010KT 38/11 A2997 RMK A01 T03750111  RH  021%=      5-min Rain = 0
KME1 042354Z 18012KT 38/11 A2997 RMK A01 T03750111  RH  021%=      5-min Rain = 0
KME1 042355Z 18010KT 37/11 A2997 RMK A01 T03730111  RH  021%=      5-min Rain = 0
KME1 042356Z 18011KT 37/11 A2997 RMK A01 T03730111  RH  021%=      5-min Rain = 0
KME1 042357Z 17011KT 37/11 A2997 RMK A01 T03720109  RH  021%=      5-min Rain = 0
KME1 042358Z 17010KT 37/11 A2997 RMK A01 T03710109  RH  021%=      5-min Rain = 0
KME1 042359Z 19008KT 37/11 A2997 RMK A01 T03710108  RH  021%=      5-min Rain = 0
KME1 050000Z 19008KT 37/11 A2997 RMK A01 T03710109  RH  021%=      5-min Rain = 0
KME1 050001Z 18007KT 37/11 A2997 RMK A01 T03700110  RH  021%=      5-min Rain = 0
KME1 050002Z 20008KT 37/11 A2997 RMK A01 T03700109  RH  021%=      5-min Rain = 0
KME1 050003Z 18010KT 37/11 A2997 RMK A01 T03710109  RH  021%=      5-min Rain = 0
KME1 050004Z 18010KT 37/11 A2997 RMK A01 T03710109  RH  021%=      5-min Rain = 0
KME1 050005Z 19009KT 37/11 A2997 RMK A01 T03710109  RH  021%=      5-min Rain = 0
KME1 050006Z 18010KT 37/11 A2997 RMK A01 T03700109  RH  021%=      5-min Rain = 0
KME1 050007Z 18011KT 37/11 A2997 RMK A01 T03700109  RH  021%=      5-min Rain = 0
KME1 050008Z 18010KT 37/11 A2997 RMK A01 T03700109  RH  021%=      5-min Rain = 0
KME1 050009Z 18007KT 37/11 A2997 RMK A01 T03700110  RH  021%=      5-min Rain = 0
KME1 050010Z 18010KT 37/11 A2997 RMK A01 T03700109  RH  021%=      5-min Rain = 0
KME1 050011Z 17008KT 37/11 A2997 RMK A01 T03690109  RH  021%=      5-min Rain = 0
KME1 050012Z 17009KT 37/11 A2997 RMK A01 T03690109  RH  021%=      5-min Rain = 0
KME1 050013Z 17009KT 37/11 A2997 RMK A01 T03690108  RH  021%=      5-min Rain = 0
KME1 050014Z 17008KT 37/11 A2997 RMK A01 T03690109  RH  021%=      5-min Rain = 0
KME1 050015Z 18007KT 37/11 A2997 RMK A01 T03690109  RH  021%=      5-min Rain = 0
KME1 050016Z 16005KT 37/11 A2997 RMK A01 T03690108  RH  021%=      5-min Rain = 0
KME1 050017Z 17006KT 37/11 A2997 RMK A01 T03690109  RH  021%=      5-min Rain = 0
KME1 050018Z 18007KT 37/11 A2997 RMK A01 T03690110  RH  021%=      5-min Rain = 0
KME1 050019Z 19006KT 37/11 A2997 RMK A01 T03690110  RH  021%=      5-min Rain = 0
KME1 050020Z 18006KT 37/11 A2997 RMK A01 T03690111  RH  021%=      5-min Rain = 0
KME1 050021Z 18007KT 37/11 A2997 RMK A01 T03690111  RH  021%=      5-min Rain = 0
KME1 050022Z 19006KT 37/11 A2997 RMK A01 T03690110  RH  021%=      5-min Rain = 0
KME1 050023Z 17008KT 37/11 A2997 RMK A01 T03680111  RH  021%=      5-min Rain = 0
KME1 050024Z 16007KT 37/11 A2997 RMK A01 T03680111  RH  021%=      5-min Rain = 0
KME1 050025Z 16008KT 37/11 A2997 RMK A01 T03680110  RH  021%=      5-min Rain = 0
KME1 050026Z 16007KT 37/11 A2997 RMK A01 T03670110  RH  021%=      5-min Rain = 0
KME1 050027Z 16007KT 37/11 A2997 RMK A01 T03670110  RH  021%=      5-min Rain = 0
KME1 050028Z 17010KT 37/11 A2997 RMK A01 T03670109  RH  021%=      5-min Rain = 0
KME1 050029Z 17010KT 37/11 A2997 RMK A01 T03670109  RH  021%=      5-min Rain = 0
KME1 050030Z 17010KT 37/11 A2997 RMK A01 T03660109  RH  021%=      5-min Rain = 0
KME1 050031Z 16011KT 37/11 A2997 RMK A01 T03660108  RH  021%=      5-min Rain = 0
KME1 050032Z 16011KT 37/11 A2997 RMK A01 T03660108  RH  021%=      5-min Rain = 0
KME1 050033Z 16009KT 37/11 A2997 RMK A01 T03650108  RH  021%=      5-min Rain = 0
KME1 050034Z 16009KT 37/11 A2997 RMK A01 T03650109  RH  021%=      5-min Rain = 0
KME1 050035Z 16010KT 36/11 A2997 RMK A01 T03640109  RH  021%=      5-min Rain = 0
KME1 050036Z 17010KT 36/11 A2997 RMK A01 T03640110  RH  022%=      5-min Rain = 0
KME1 050037Z 17008KT 36/11 A2997 RMK A01 T03640110  RH  022%=      5-min Rain = 0
KME1 050038Z 18007KT 36/11 A2997 RMK A01 T03630110  RH  022%=      5-min Rain = 0
KME1 050039Z 18008KT 36/11 A2997 RMK A01 T03630111  RH  022%=      5-min Rain = 0
KME1 050040Z 19008KT 36/11 A2997 RMK A01 T03620111  RH  022%=      5-min Rain = 0
KME1 050041Z 19007KT 36/11 A2997 RMK A01 T03620110  RH  022%=      5-min Rain = 0
KME1 050042Z 17007KT 36/11 A2997 RMK A01 T03620111  RH  022%=      5-min Rain = 0
KME1 050043Z 18007KT 36/11 A2997 RMK A01 T03610111  RH  022%=      5-min Rain = 0
KME1 050044Z 17010G15KT 36/11 A2997 RMK A01 T03610111  RH  022%=      5-min Rain = 0
KME1 050045Z 16010KT 36/11 A2997 RMK A01 T03610110  RH  022%=      5-min Rain = 0
KME1 050046Z 16011KT 36/11 A2997 RMK A01 T03600109  RH  022%=      5-min Rain = 0
KME1 050047Z 17008KT 36/11 A2997 RMK A01 T03600109  RH  022%=      5-min Rain = 0
KME1 050048Z 17009KT 36/11 A2997 RMK A01 T03600110  RH  022%=      5-min Rain = 0
KME1 050049Z 16009KT 36/11 A2997 RMK A01 T03600110  RH  022%=      5-min Rain = 0
KME1 050050Z 16008KT 36/11 A2997 RMK A01 T03590109  RH  022%=      5-min Rain = 0
KME1 050051Z 16008KT 36/11 A2997 RMK A01 T03590110  RH  022%=      5-min Rain = 0
KME1 050052Z 16008KT 36/11 A2997 RMK A01 T03590110  RH  022%=      5-min Rain = 0
KME1 050053Z 16007KT 36/11 A2997 RMK A01 T03580110  RH  022%=      5-min Rain = 0
KME1 050054Z 16007KT 36/11 A2997 RMK A01 T03580111  RH  022%=      5-min Rain = 0
KME1 050055Z 17006KT 36/11 A2997 RMK A01 T03580111  RH  022%=      5-min Rain = 0
KME1 050056Z 17007KT 36/11 A2997 RMK A01 T03570111  RH  023%=      5-min Rain = 0
KME1 050057Z 17008KT 36/11 A2997 RMK A01 T03570110  RH  023%=      5-min Rain = 0
KME1 050058Z 17008KT 36/11 A2997 RMK A01 T03570110  RH  022%=      5-min Rain = 0
KME1 050059Z 17009KT 36/11 A2997 RMK A01 T03570110  RH  023%=      5-min Rain = 0
KME1 050100Z 17007KT 36/11 A2997 RMK A01 T03560110  RH  023%=      5-min Rain = 0
KME1 050101Z 17007KT 36/11 A2997 RMK A01 T03550111  RH  023%=      5-min Rain = 0
KME1 050102Z 17006KT 36/11 A2997 RMK A01 T03550110  RH  023%=      5-min Rain = 0
KME1 050103Z 16008KT 35/11 A2997 RMK A01 T03540110  RH  023%=      5-min Rain = 0
KME1 050104Z 17008KT 35/11 A2997 RMK A01 T03540109  RH  023%=      5-min Rain = 0
KME1 050105Z 17006KT 35/11 A2997 RMK A01 T03540108  RH  023%=      5-min Rain = 0
KME1 050106Z 18007KT 35/11 A2997 RMK A01 T03530108  RH  023%=      5-min Rain = 0
KME1 050107Z 17009KT 35/11 A2997 RMK A01 T03530108  RH  023%=      5-min Rain = 0
KME1 050108Z 17009KT 35/11 A2997 RMK A01 T03530108  RH  023%=      5-min Rain = 0
KME1 050109Z 17009KT 35/11 A2997 RMK A01 T03520108  RH  023%=      5-min Rain = 0
KME1 050110Z 17009KT 35/11 A2997 RMK A01 T03520109  RH  023%=      5-min Rain = 0
KME1 050111Z 17008KT 35/11 A2997 RMK A01 T03520109  RH  023%=      5-min Rain = 0
KME1 050112Z 18008KT 35/11 A2997 RMK A01 T03520110  RH  023%=      5-min Rain = 0
KME1 050113Z 18008KT 35/11 A2997 RMK A01 T03500110  RH  023%=      5-min Rain = 0
KME1 050114Z 18008KT 35/11 A2997 RMK A01 T03500110  RH  023%=      5-min Rain = 0
KME1 050115Z 18008KT 35/11 A2997 RMK A01 T03490111  RH  024%=      5-min Rain = 0
KME1 050116Z 17007KT 35/11 A2997 RMK A01 T03490111  RH  024%=      5-min Rain = 0
KME1 050117Z 17006KT 35/11 A2997 RMK A01 T03490112  RH  024%=      5-min Rain = 0
KME1 050118Z 17007KT 35/11 A2997 RMK A01 T03480112  RH  024%=      5-min Rain = 0
KME1 050119Z 18009KT 35/11 A2997 RMK A01 T03480113  RH  024%=      5-min Rain = 0
KME1 050120Z 18007KT 35/11 A2997 RMK A01 T03470114  RH  024%=      5-min Rain = 0
KME1 050121Z 17009KT 35/11 A2997 RMK A01 T03460114  RH  024%=      5-min Rain = 0
KME1 050122Z 18007KT 35/12 A2997 RMK A01 T03460115  RH  025%=      5-min Rain = 0
KME1 050123Z 18006KT 35/12 A2998 RMK A01 T03460115  RH  025%=      5-min Rain = 0
KME1 050124Z 17006KT 34/12 A2998 RMK A01 T03440115  RH  025%=      5-min Rain = 0
KME1 050125Z 17006KT 34/12 A2998 RMK A01 T03430116  RH  025%=      5-min Rain = 0
KME1 050126Z 18006KT 34/12 A2998 RMK A01 T03420116  RH  025%=      5-min Rain = 0
KME1 050127Z 17006KT 34/12 A2998 RMK A01 T03420116  RH  025%=      5-min Rain = 0
KME1 050128Z 17006KT 34/12 A2998 RMK A01 T03410116  RH  026%=      5-min Rain = 0
KME1 050129Z 18006KT 34/12 A2998 RMK A01 T03410117  RH  026%=      5-min Rain = 0
KME1 050130Z 17005KT 34/12 A2998 RMK A01 T03400117  RH  026%=      5-min Rain = 0
KME1 050131Z 17006KT 34/12 A2998 RMK A01 T03390117  RH  026%=      5-min Rain = 0
KME1 050132Z 17006KT 34/12 A2998 RMK A01 T03380117  RH  026%=      5-min Rain = 0
KME1 050133Z 17005KT 34/12 A2998 RMK A01 T03380117  RH  026%=      5-min Rain = 0
KME1 050134Z 17006KT 34/12 A2998 RMK A01 T03370117  RH  026%=      5-min Rain = 0
KME1 050135Z 18006KT 34/12 A2998 RMK A01 T03370117  RH  026%=      5-min Rain = 0
KME1 050136Z 17006KT 34/12 A2998 RMK A01 T03370118  RH  026%=      5-min Rain = 0
KME1 050137Z 17007KT 34/12 A2998 RMK A01 T03370118  RH  027%=      5-min Rain = 0
KME1 050138Z 18007KT 34/12 A2998 RMK A01 T03360118  RH  027%=      5-min Rain = 0
KME1 050139Z 17007KT 34/12 A2997 RMK A01 T03360119  RH  027%=      5-min Rain = 0
KME1 050140Z 17007KT 34/12 A2997 RMK A01 T03360119  RH  027%=      5-min Rain = 0
KME1 050141Z 17006KT 34/12 A2997 RMK A01 T03350119  RH  027%=      5-min Rain = 0
KME1 050142Z 18006KT 34/12 A2997 RMK A01 T03350120  RH  027%=      5-min Rain = 0
KME1 050143Z 17006KT 33/12 A2997 RMK A01 T03340120  RH  027%=      5-min Rain = 0
KME1 050144Z 17005KT 33/12 A2997 RMK A01 T03330120  RH  027%=      5-min Rain = 0
KME1 050145Z 17005KT 33/12 A2997 RMK A01 T03330120  RH  027%=      5-min Rain = 0
KME1 050146Z 17005KT 33/12 A2998 RMK A01 T03320120  RH  028%=      5-min Rain = 0
KME1 050147Z 17005KT 33/12 A2998 RMK A01 T03300120  RH  028%=      5-min Rain = 0
KME1 050148Z 17006KT 33/12 A2998 RMK A01 T03300120  RH  028%=      5-min Rain = 0
KME1 050149Z 17005KT 33/12 A2998 RMK A01 T03290120  RH  028%=      5-min Rain = 0
KME1 050150Z 17006KT 33/12 A2998 RMK A01 T03290120  RH  028%=      5-min Rain = 0
KME1 050151Z 17005KT 33/12 A2998 RMK A01 T03280120  RH  028%=      5-min Rain = 0
KME1 050152Z 17005KT 33/12 A2998 RMK A01 T03270120  RH  028%=      5-min Rain = 0
KME1 050153Z 17005KT 33/12 A2998 RMK A01 T03270120  RH  028%=      5-min Rain = 0
KME1 050154Z 17005KT 33/12 A2998 RMK A01 T03270121  RH  029%=      5-min Rain = 0
KME1 050155Z 17005KT 33/12 A2998 RMK A01 T03260121  RH  029%=      5-min Rain = 0
KME1 050156Z 17005KT 33/12 A2998 RMK A01 T03250121  RH  029%=      5-min Rain = 0
KME1 050157Z 17004KT 32/12 A2998 RMK A01 T03240121  RH  029%=      5-min Rain = 0
KME1 050158Z 17005KT 32/12 A2998 RMK A01 T03240121  RH  029%=      5-min Rain = 0
KME1 050159Z 17005KT 32/12 A2998 RMK A01 T03240121  RH  029%=      5-min Rain = 0
KME1 050200Z 17005KT 32/12 A2998 RMK A01 T03240121  RH  029%=      5-min Rain = 0
KME1 050201Z 17004KT 32/12 A2998 RMK A01 T03230121  RH  029%=      5-min Rain = 0
KME1 050202Z 17004KT 32/12 A2998 RMK A01 T03230121  RH  029%=      5-min Rain = 0
KME1 050203Z 17005KT 32/12 A2998 RMK A01 T03230122  RH  029%=      5-min Rain = 0
KME1 050204Z 17005KT 32/12 A2998 RMK A01 T03220122  RH  029%=      5-min Rain = 0
KME1 050205Z 18005KT 32/12 A2998 RMK A01 T03220122  RH  030%=      5-min Rain = 0
KME1 050206Z 17005KT 32/12 A2998 RMK A01 T03220123  RH  030%=      5-min Rain = 0
KME1 050207Z 18005KT 32/12 A2998 RMK A01 T03210123  RH  030%=      5-min Rain = 0
KME1 050208Z 18005KT 32/12 A2998 RMK A01 T03210124  RH  030%=      5-min Rain = 0
KME1 050209Z 18005KT 32/12 A2998 RMK A01 T03210124  RH  030%=      5-min Rain = 0
KME1 050210Z 18005KT 32/12 A2998 RMK A01 T03200124  RH  030%=      5-min Rain = 0
KME1 050211Z 18005KT 32/12 A2998 RMK A01 T03200124  RH  030%=      5-min Rain = 0
KME1 050212Z 19004KT 32/12 A2998 RMK A01 T03200124  RH  030%=      5-min Rain = 0
KME1 050213Z 19004KT 32/12 A2998 RMK A01 T03190124  RH  031%=      5-min Rain = 0
KME1 050214Z 19004KT 32/12 A2998 RMK A01 T03180124  RH  031%=      5-min Rain = 0
KME1 050215Z 19004KT 32/12 A2998 RMK A01 T03170124  RH  031%=      5-min Rain = 0
KME1 050216Z 18004KT 32/12 A2999 RMK A01 T03170124  RH  031%=      5-min Rain = 0
KME1 050217Z 18005KT 32/12 A2999 RMK A01 T03160124  RH  031%=      5-min Rain = 0
KME1 050218Z 18006KT 32/12 A2999 RMK A01 T03150124  RH  031%=      5-min Rain = 0
KME1 050219Z 18005KT 32/13 A2999 RMK A01 T03150125  RH  031%=      5-min Rain = 0
KME1 050220Z 18005KT 32/13 A2999 RMK A01 T03150125  RH  031%=      5-min Rain = 0
KME1 050221Z 18005KT 32/13 A2999 RMK A01 T03150125  RH  031%=      5-min Rain = 0
KME1 050222Z 18005KT 32/13 A2999 RMK A01 T03150126  RH  031%=      5-min Rain = 0
KME1 050223Z 18005KT 31/13 A2999 RMK A01 T03140126  RH  032%=      5-min Rain = 0
KME1 050224Z 18005KT 31/13 A2999 RMK A01 T03130125  RH  032%=      5-min Rain = 0
KME1 050225Z 18005KT 31/13 A2999 RMK A01 T03130126  RH  032%=      5-min Rain = 0
KME1 050226Z 18005KT 31/13 A2999 RMK A01 T03130126  RH  032%=      5-min Rain = 0
KME1 050227Z 18005KT 31/13 A2999 RMK A01 T03120126  RH  032%=      5-min Rain = 0
KME1 050228Z 18005KT 31/13 A2999 RMK A01 T03120126  RH  032%=      5-min Rain = 0
KME1 050229Z 18005KT 31/13 A2999 RMK A01 T03120126  RH  032%=      5-min Rain = 0
KME1 050230Z 18005KT 31/13 A2999 RMK A01 T03110126  RH  032%=      5-min Rain = 0
KME1 050231Z 18005KT 31/13 A2999 RMK A01 T03100126  RH  032%=      5-min Rain = 0
KME1 050232Z 18005KT 31/13 A2999 RMK A01 T03100126  RH  032%=      5-min Rain = 0
KME1 050233Z 18004KT 31/13 A2999 RMK A01 T03100127  RH  032%=      5-min Rain = 0
KME1 050234Z 18005KT 31/13 A2999 RMK A01 T03100126  RH  032%=      5-min Rain = 0
KME1 050235Z 18005KT 31/13 A2999 RMK A01 T03100126  RH  033%=      5-min Rain = 0
KME1 050236Z 18005KT 31/13 A2999 RMK A01 T03090126  RH  033%=      5-min Rain = 0
KME1 050237Z 19004KT 31/13 A2999 RMK A01 T03080126  RH  033%=      5-min Rain = 0
KME1 050238Z 19005KT 31/13 A2999 RMK A01 T03080126  RH  033%=      5-min Rain = 0
KME1 050239Z 18004KT 31/13 A2999 RMK A01 T03070126  RH  033%=      5-min Rain = 0
KME1 050240Z 19005KT 31/13 A2999 RMK A01 T03070126  RH  033%=      5-min Rain = 0
KME1 050241Z 19005KT 31/13 A2999 RMK A01 T03060126  RH  033%=      5-min Rain = 0
KME1 050242Z 18005KT 31/13 A2999 RMK A01 T03050126  RH  033%=      5-min Rain = 0
KME1 050243Z 19004KT 31/13 A2999 RMK A01 T03050126  RH  033%=      5-min Rain = 0
KME1 050244Z 18005KT 30/13 A2999 RMK A01 T03040126  RH  034%=      5-min Rain = 0
KME1 050245Z 19004KT 30/13 A2999 RMK A01 T03030126  RH  034%=      5-min Rain = 0
KME1 050246Z 19005KT 30/13 A2999 RMK A01 T03020126  RH  034%=      5-min Rain = 0
KME1 050247Z 19005KT 30/13 A2999 RMK A01 T03010126  RH  034%=      5-min Rain = 0
KME1 050248Z 18004KT 30/13 A2999 RMK A01 T03000126  RH  034%=      5-min Rain = 0
KME1 050249Z 19004KT 30/13 A2999 RMK A01 T02990126  RH  034%=      5-min Rain = 0
KME1 050250Z 19005KT 30/13 A30 RMK A01 T02980126  RH  035%=      5-min Rain = 0
KME1 050251Z 19005KT 30/13 A30 RMK A01 T02970126  RH  035%=      5-min Rain = 0
KME1 050252Z 19004KT 30/13 A30 RMK A01 T02960126  RH  035%=      5-min Rain = 0
KME1 050253Z 19004KT 30/13 A30 RMK A01 T02950127  RH  036%=      5-min Rain = 0
KME1 050254Z 19004KT 29/13 A30 RMK A01 T02930127  RH  036%=      5-min Rain = 0
KME1 050255Z 18005KT 29/13 A30 RMK A01 T02920127  RH  036%=      5-min Rain = 0
KME1 050256Z 18005KT 29/13 A30 RMK A01 T02920127  RH  036%=      5-min Rain = 0
KME1 050257Z 18005KT 29/13 A30 RMK A01 T02910127  RH  036%=      5-min Rain = 0
KME1 050258Z 18004KT 29/13 A30 RMK A01 T02910127  RH  036%=      5-min Rain = 0
KME1 050259Z 18004KT 29/13 A30 RMK A01 T02910127  RH  037%=      5-min Rain = 0
KME1 050300Z 18004KT 29/13 A30 RMK A01 T02900127  RH  037%=      5-min Rain = 0
KME1 050301Z 18004KT 29/13 A30 RMK A01 T02910128  RH  037%=      5-min Rain = 0
KME1 050302Z 18005KT 29/13 A30 RMK A01 T02900127  RH  037%=      5-min Rain = 0
KME1 050303Z 19005KT 29/13 A30 RMK A01 T02900127  RH  037%=      5-min Rain = 0
KME1 050304Z 18004KT 29/13 A30 RMK A01 T02910128  RH  037%=      5-min Rain = 0
KME1 050305Z 18005KT 29/13 A30 RMK A01 T02900128  RH  037%=      5-min Rain = 0
KME1 050306Z 19005KT 29/13 A30 RMK A01 T02900128  RH  037%=      5-min Rain = 0
KME1 050307Z 18005KT 29/13 A30 RMK A01 T02900128  RH  037%=      5-min Rain = 0
KME1 050308Z 19005KT 29/13 A30 RMK A01 T02890128  RH  037%=      5-min Rain = 0
KME1 050309Z 19004KT 29/13 A30 RMK A01 T02880127  RH  037%=      5-min Rain = 0
KME1 050310Z 19005KT 29/13 A30 RMK A01 T02870127  RH  037%=      5-min Rain = 0
KME1 050311Z 19005KT 29/13 A30 RMK A01 T02880128  RH  037%=      5-min Rain = 0
KME1 050312Z 19005KT 29/13 A30 RMK A01 T02870128  RH  037%=      5-min Rain = 0
KME1 050313Z 19005KT 29/13 A30 RMK A01 T02860128  RH  038%=      5-min Rain = 0
KME1 050314Z 19005KT 29/13 A30 RMK A01 T02850128  RH  038%=      5-min Rain = 0
KME1 050315Z 19005KT 29/13 A30 RMK A01 T02850128  RH  038%=      5-min Rain = 0
KME1 050316Z 19005KT 29/13 A30 RMK A01 T02850128  RH  038%=      5-min Rain = 0
KME1 050317Z 19005KT 29/13 A30 RMK A01 T02850128  RH  038%=      5-min Rain = 0
KME1 050318Z 19005KT 29/13 A30 RMK A01 T02850128  RH  038%=      5-min Rain = 0
KME1 050319Z 19005KT 29/13 A30 RMK A01 T02860128  RH  038%=      5-min Rain = 0
KME1 050320Z 19005KT 29/13 A30 RMK A01 T02860128  RH  038%=      5-min Rain = 0
KME1 050321Z 19005KT 29/13 A30 RMK A01 T02860129  RH  038%=      5-min Rain = 0
KME1 050322Z 19004KT 29/13 A30 RMK A01 T02850128  RH  038%=      5-min Rain = 0
KME1 050323Z 19005KT 28/13 A30 RMK A01 T02840129  RH  038%=      5-min Rain = 0
KME1 050324Z 19004KT 28/13 A30 RMK A01 T02840129  RH  038%=      5-min Rain = 0
KME1 050325Z 19004KT 28/13 A30 RMK A01 T02830129  RH  039%=      5-min Rain = 0
KME1 050326Z 19005KT 28/13 A30 RMK A01 T02830128  RH  039%=      5-min Rain = 0
KME1 050327Z 19005KT 28/13 A3001 RMK A01 T02820128  RH  039%=      5-min Rain = 0
KME1 050328Z 19004KT 28/13 A3001 RMK A01 T02810128  RH  039%=      5-min Rain = 0
KME1 050329Z 19004KT 28/13 A3001 RMK A01 T02800128  RH  039%=      5-min Rain = 0
KME1 050330Z 20005KT 28/13 A3001 RMK A01 T02790128  RH  039%=      5-min Rain = 0
KME1 050331Z 20005KT 28/13 A3001 RMK A01 T02790129  RH  040%=      5-min Rain = 0
KME1 050332Z 21005KT 28/13 A3001 RMK A01 T02780128  RH  040%=      5-min Rain = 0
KME1 050333Z 21005KT 28/13 A3001 RMK A01 T02770128  RH  040%=      5-min Rain = 0
KME1 050334Z 21005KT 28/13 A3001 RMK A01 T02770128  RH  040%=      5-min Rain = 0
KME1 050335Z 21005KT 28/13 A3001 RMK A01 T02760127  RH  040%=      5-min Rain = 0
KME1 050336Z 21005KT 28/13 A3001 RMK A01 T02760127  RH  040%=      5-min Rain = 0
KME1 050337Z 21005KT 28/13 A3001 RMK A01 T02750127  RH  040%=      5-min Rain = 0
KME1 050338Z 21005KT 28/13 A3001 RMK A01 T02750127  RH  040%=      5-min Rain = 0
KME1 050339Z 20005KT 27/13 A3001 RMK A01 T02740127  RH  040%=      5-min Rain = 0
KME1 050340Z 20005KT 27/13 A3001 RMK A01 T02740126  RH  040%=      5-min Rain = 0
KME1 050341Z 20005KT 27/13 A3001 RMK A01 T02740127  RH  040%=      5-min Rain = 0
KME1 050342Z 20005KT 27/13 A3001 RMK A01 T02740127  RH  040%=      5-min Rain = 0
KME1 050343Z 20005KT 27/13 A3001 RMK A01 T02740126  RH  040%=      5-min Rain = 0
KME1 050344Z 20005KT 27/13 A3001 RMK A01 T02740127  RH  040%=      5-min Rain = 0
KME1 050345Z 20005KT 27/13 A3001 RMK A01 T02730126  RH  040%=      5-min Rain = 0
KME1 050346Z 21005KT 27/13 A3001 RMK A01 T02730126  RH  040%=      5-min Rain = 0
KME1 050347Z 21005KT 27/13 A3001 RMK A01 T02720126  RH  040%=      5-min Rain = 0
KME1 050348Z 21005KT 27/13 A3001 RMK A01 T02720126  RH  041%=      5-min Rain = 0
KME1 050349Z 21006KT 27/13 A3001 RMK A01 T02710126  RH  041%=      5-min Rain = 0
KME1 050350Z 21006KT 27/13 A3001 RMK A01 T02710127  RH  041%=      5-min Rain = 0
KME1 050351Z 20005KT 27/13 A3001 RMK A01 T02710127  RH  041%=      5-min Rain = 0
KME1 050352Z 20006KT 27/13 A3001 RMK A01 T02710127  RH  041%=      5-min Rain = 0
KME1 050353Z 19005KT 27/13 A3001 RMK A01 T02710127  RH  041%=      5-min Rain = 0
KME1 050354Z 19005KT 27/13 A3001 RMK A01 T02720127  RH  041%=      5-min Rain = 0
KME1 050355Z 19006KT 27/13 A3001 RMK A01 T02720127  RH  041%=      5-min Rain = 0
KME1 050356Z 19005KT 27/13 A3001 RMK A01 T02730128  RH  041%=      5-min Rain = 0
KME1 050357Z 19005KT 27/13 A3001 RMK A01 T02740128  RH  040%=      5-min Rain = 0
KME1 050358Z 19005KT 27/13 A3001 RMK A01 T02740128  RH  040%=      5-min Rain = 0
KME1 050359Z 19005KT 28/13 A3001 RMK A01 T02760129  RH  040%=      5-min Rain = 0
KME1 050400Z 19005KT 28/13 A3001 RMK A01 T02770129  RH  040%=      5-min Rain = 0
KME1 050401Z 19005KT 28/13 A3001 RMK A01 T02770129  RH  040%=      5-min Rain = 0
KME1 050402Z 19005KT 28/13 A3001 RMK A01 T02780129  RH  040%=      5-min Rain = 0
KME1 050403Z 19005KT 28/13 A3001 RMK A01 T02780129  RH  040%=      5-min Rain = 0
KME1 050404Z 19005KT 28/13 A3001 RMK A01 T02780129  RH  040%=      5-min Rain = 0
KME1 050405Z 19005KT 28/13 A3001 RMK A01 T02780130  RH  040%=      5-min Rain = 0
KME1 050406Z 19006KT 28/13 A3001 RMK A01 T02780130  RH  040%=      5-min Rain = 0
KME1 050407Z 19005KT 28/13 A3001 RMK A01 T02780130  RH  040%=      5-min Rain = 0
KME1 050408Z 18005KT 28/13 A3001 RMK A01 T02780130  RH  040%=      5-min Rain = 0
KME1 050409Z 19006KT 28/13 A3001 RMK A01 T02780130  RH  040%=      5-min Rain = 0
KME1 050410Z 18006KT 28/13 A3001 RMK A01 T02790130  RH  040%=      5-min Rain = 0
KME1 050411Z 18006KT 28/13 A3001 RMK A01 T02800131  RH  040%=      5-min Rain = 0
KME1 050412Z 19006KT 28/13 A3001 RMK A01 T02820131  RH  040%=      5-min Rain = 0
KME1 050413Z 19006KT 28/13 A3001 RMK A01 T02820131  RH  039%=      5-min Rain = 0
KME1 050414Z 19006KT 28/13 A3001 RMK A01 T02830131  RH  039%=      5-min Rain = 0
KME1 050415Z 19006KT 28/13 A3001 RMK A01 T02840132  RH  039%=      5-min Rain = 0
KME1 050416Z 19006KT 28/13 A3001 RMK A01 T02840132  RH  039%=      5-min Rain = 0
KME1 050417Z 19006KT 28/13 A3001 RMK A01 T02840132  RH  039%=      5-min Rain = 0
KME1 050418Z 19006KT 28/13 A3001 RMK A01 T02840132  RH  039%=      5-min Rain = 0
KME1 050419Z 19006KT 28/13 A3001 RMK A01 T02840132  RH  039%=      5-min Rain = 0
KME1 050420Z 19006KT 28/13 A3001 RMK A01 T02830132  RH  039%=      5-min Rain = 0
KME1 050421Z 19007KT 28/13 A3001 RMK A01 T02820132  RH  040%=      5-min Rain = 0
KME1 050422Z 19007KT 28/13 A3001 RMK A01 T02820132  RH  040%=      5-min Rain = 0
KME1 050423Z 19007KT 28/13 A3001 RMK A01 T02820133  RH  040%=      5-min Rain = 0
KME1 050424Z 19007KT 28/13 A3001 RMK A01 T02820133  RH  040%=      5-min Rain = 0
KME1 050425Z 19007KT 28/13 A3001 RMK A01 T02820133  RH  040%=      5-min Rain = 0
KME1 050426Z 19006KT 28/13 A3001 RMK A01 T02820133  RH  040%=      5-min Rain = 0
KME1 050427Z 19007KT 28/13 A3001 RMK A01 T02830134  RH  040%=      5-min Rain = 0
KME1 050428Z 19008KT 28/13 A3001 RMK A01 T02830134  RH  040%=      5-min Rain = 0
KME1 050429Z 18006KT 28/13 A3001 RMK A01 T02830134  RH  040%=      5-min Rain = 0
KME1 050430Z 19006KT 28/13 A3001 RMK A01 T02840134  RH  040%=      5-min Rain = 0
KME1 050431Z 19007KT 28/13 A3001 RMK A01 T02830134  RH  040%=      5-min Rain = 0
KME1 050432Z 19008KT 28/14 A3001 RMK A01 T02840135  RH  040%=      5-min Rain = 0
KME1 050433Z 19008KT 29/14 A3001 RMK A01 T02850135  RH  040%=      5-min Rain = 0
KME1 050434Z 19008KT 29/14 A3001 RMK A01 T02860135  RH  040%=      5-min Rain = 0
KME1 050435Z 19006KT 29/14 A3001 RMK A01 T02870135  RH  039%=      5-min Rain = 0
KME1 050436Z 19007KT 29/14 A3001 RMK A01 T02860135  RH  039%=      5-min Rain = 0
KME1 050437Z 19009KT 29/14 A3001 RMK A01 T02860136  RH  040%=      5-min Rain = 0
KME1 050438Z 19008KT 29/14 A3001 RMK A01 T02860136  RH  040%=      5-min Rain = 0
KME1 050439Z 18009KT 29/14 A3001 RMK A01 T02860136  RH  040%=      5-min Rain = 0
KME1 050440Z 18008KT 29/14 A3001 RMK A01 T02860136  RH  040%=      5-min Rain = 0
KME1 050441Z 18007KT 29/14 A3001 RMK A01 T02870136  RH  039%=      5-min Rain = 0
KME1 050442Z 18009KT 29/14 A3001 RMK A01 T02860136  RH  040%=      5-min Rain = 0
KME1 050443Z 19007KT 29/14 A3001 RMK A01 T02860136  RH  040%=      5-min Rain = 0
KME1 050444Z 18008KT 29/14 A3001 RMK A01 T02860136  RH  040%=      5-min Rain = 0
KME1 050445Z 18008KT 29/14 A3001 RMK A01 T02860136  RH  040%=      5-min Rain = 0
KME1 050446Z 18009KT 29/14 A3001 RMK A01 T02860136  RH  040%=      5-min Rain = 0
KME1 050447Z 18009KT 29/14 A3001 RMK A01 T02860136  RH  040%=      5-min Rain = 0
KME1 050448Z 18009KT 29/14 A3001 RMK A01 T02860136  RH  040%=      5-min Rain = 0
KME1 050449Z 18008KT 29/14 A3001 RMK A01 T02860136  RH  040%=      5-min Rain = 0
KME1 050450Z 18010KT 29/14 A3001 RMK A01 T02860136  RH  040%=      5-min Rain = 0
KME1 050451Z 18007KT 29/14 A3001 RMK A01 T02860136  RH  040%=      5-min Rain = 0
KME1 050452Z 18008KT 29/14 A3001 RMK A01 T02850136  RH  040%=      5-min Rain = 0
KME1 050453Z 18008KT 28/14 A3001 RMK A01 T02840136  RH  040%=      5-min Rain = 0
KME1 050454Z 18008KT 28/14 A3001 RMK A01 T02840137  RH  040%=      5-min Rain = 0
KME1 050455Z 18009KT 28/14 A3001 RMK A01 T02830137  RH  041%=      5-min Rain = 0
KME1 050456Z 18008KT 28/14 A3001 RMK A01 T02830136  RH  041%=      5-min Rain = 0
KME1 050457Z 18009KT 28/14 A3001 RMK A01 T02830137  RH  041%=      5-min Rain = 0
KME1 050458Z 18008KT 28/14 A3001 RMK A01 T02820137  RH  041%=      5-min Rain = 0
KME1 050459Z 18008KT 28/14 A3001 RMK A01 T02820137  RH  041%=      5-min Rain = 0

Page generated in 0.1329 seconds.